Observation data for Menard on 01/11/2018      Previous  Date  Next       Current Mesonet Observations  Soil Data  Daily Summary Page  Observations in Plain Language
KMD1 110600Z 23004KT 11/07 A2977 RMK A01 T01050069  RH  078%=      5-min Rain = 0
KMD1 110601Z 23005KT 11/07 A2977 RMK A01 T01050069  RH  079%=      5-min Rain = 0
KMD1 110602Z 23004KT 11/07 A2977 RMK A01 T01050070  RH  079%=      5-min Rain = 0
KMD1 110603Z 24004KT 11/07 A2977 RMK A01 T01050070  RH  079%=      5-min Rain = 0
KMD1 110604Z 22004KT 11/07 A2977 RMK A01 T01050069  RH  079%=      5-min Rain = 0
KMD1 110605Z 23003KT 10/07 A2977 RMK A01 T01040069  RH  079%=      5-min Rain = 0
KMD1 110606Z 23003KT 10/07 A2977 RMK A01 T01040070  RH  079%=      5-min Rain = 0
KMD1 110607Z 23003KT 10/07 A2977 RMK A01 T01040069  RH  079%=      5-min Rain = 0
KMD1 110608Z 23003KT 10/07 A2977 RMK A01 T01040069  RH  079%=      5-min Rain = 0
KMD1 110609Z 23003KT 10/07 A2977 RMK A01 T01040069  RH  079%=      5-min Rain = 0
KMD1 110610Z 22004KT 10/07 A2977 RMK A01 T01040069  RH  079%=      5-min Rain = 0
KMD1 110611Z 23004KT 10/07 A2977 RMK A01 T01040068  RH  079%=      5-min Rain = 0
KMD1 110612Z 22002KT 10/07 A2977 RMK A01 T01030069  RH  079%=      5-min Rain = 0
KMD1 110613Z 22003KT 10/07 A2976 RMK A01 T01030069  RH  079%=      5-min Rain = 0
KMD1 110614Z 23003KT 10/07 A2976 RMK A01 T01020068  RH  079%=      5-min Rain = 0
KMD1 110615Z 21002KT 10/07 A2976 RMK A01 T01020067  RH  079%=      5-min Rain = 0
KMD1 110616Z 21002KT 10/07 A2976 RMK A01 T01010067  RH  080%=      5-min Rain = 0
KMD1 110617Z 21002KT 10/07 A2976 RMK A01 T01010069  RH  080%=      5-min Rain = 0
KMD1 110618Z 24001KT 10/07 A2976 RMK A01 T01010068  RH  080%=      5-min Rain = 0
KMD1 110619Z 25001KT 10/07 A2976 RMK A01 T01000065  RH  079%=      5-min Rain = 0
KMD1 110620Z 26001KT 10/06 A2976 RMK A01 T00950057  RH  077%=      5-min Rain = 0
KMD1 110621Z 25001KT 09/06 A2976 RMK A01 T00940059  RH  079%=      5-min Rain = 0
KMD1 110622Z 25002KT 09/06 A2976 RMK A01 T00930063  RH  081%=      5-min Rain = 0
KMD1 110623Z 25002KT 09/07 A2976 RMK A01 T00940066  RH  083%=      5-min Rain = 0
KMD1 110624Z 24002KT 09/06 A2976 RMK A01 T00940064  RH  081%=      5-min Rain = 0
KMD1 110625Z 24002KT 09/07 A2976 RMK A01 T00940065  RH  082%=      5-min Rain = 0
KMD1 110626Z 25002KT 09/07 A2976 RMK A01 T00940066  RH  083%=      5-min Rain = 0
KMD1 110627Z 25002KT 10/06 A2976 RMK A01 T00950064  RH  081%=      5-min Rain = 0
KMD1 110628Z 24002KT 09/06 A2975 RMK A01 T00940063  RH  081%=      5-min Rain = 0
KMD1 110629Z 23002KT 09/06 A2975 RMK A01 T00930064  RH  082%=      5-min Rain = 0
KMD1 110630Z 23002KT 09/06 A2975 RMK A01 T00930064  RH  082%=      5-min Rain = 0
KMD1 110631Z 22002KT 09/07 A2975 RMK A01 T00930065  RH  083%=      5-min Rain = 0
KMD1 110632Z 23002KT 09/06 A2975 RMK A01 T00930063  RH  082%=      5-min Rain = 0
KMD1 110633Z 23002KT 09/06 A2975 RMK A01 T00920062  RH  081%=      5-min Rain = 0
KMD1 110634Z 23002KT 09/06 A2975 RMK A01 T00910061  RH  082%=      5-min Rain = 0
KMD1 110635Z 23002KT 09/06 A2976 RMK A01 T00910063  RH  083%=      5-min Rain = 0
KMD1 110636Z 22002KT 09/06 A2975 RMK A01 T00910064  RH  084%=      5-min Rain = 0
KMD1 110637Z 22003KT 09/07 A2975 RMK A01 T00910065  RH  084%=      5-min Rain = 0
KMD1 110638Z 21003KT 09/07 A2975 RMK A01 T00910065  RH  084%=      5-min Rain = 0
KMD1 110639Z 22003KT 09/07 A2975 RMK A01 T00910065  RH  084%=      5-min Rain = 0
KMD1 110640Z 22003KT 09/07 A2975 RMK A01 T00910065  RH  084%=      5-min Rain = 0
KMD1 110641Z 22003KT 09/07 A2975 RMK A01 T00900065  RH  084%=      5-min Rain = 0
KMD1 110642Z 23002KT 09/06 A2975 RMK A01 T00900064  RH  084%=      5-min Rain = 0
KMD1 110643Z 24002KT 09/06 A2975 RMK A01 T00890062  RH  083%=      5-min Rain = 0
KMD1 110644Z 27002KT 09/06 A2975 RMK A01 T00870060  RH  083%=      5-min Rain = 0
KMD1 110645Z 28001KT 09/06 A2975 RMK A01 T00850058  RH  083%=      5-min Rain = 0
KMD1 110646Z 27001KT 08/06 A2975 RMK A01 T00830057  RH  084%=      5-min Rain = 0
KMD1 110647Z 28001KT 08/06 A2975 RMK A01 T00820059  RH  085%=      5-min Rain = 0
KMD1 110648Z 29001KT 08/06 A2975 RMK A01 T00830061  RH  086%=      5-min Rain = 0
KMD1 110649Z 29001KT 08/06 A2975 RMK A01 T00840063  RH  087%=      5-min Rain = 0
KMD1 110650Z 29001KT 09/07 A2975 RMK A01 T00850065  RH  087%=      5-min Rain = 0
KMD1 110651Z 28002KT 09/06 A2975 RMK A01 T00860064  RH  087%=      5-min Rain = 0
KMD1 110652Z 26002KT 09/06 A2975 RMK A01 T00860063  RH  086%=      5-min Rain = 0
KMD1 110653Z 26002KT 08/06 A2975 RMK A01 T00840059  RH  085%=      5-min Rain = 0
KMD1 110654Z 27002KT 08/06 A2975 RMK A01 T00830060  RH  085%=      5-min Rain = 0
KMD1 110655Z 26002KT 08/06 A2975 RMK A01 T00830060  RH  086%=      5-min Rain = 0
KMD1 110656Z 27002KT 08/06 A2975 RMK A01 T00820060  RH  086%=      5-min Rain = 0
KMD1 110657Z 26002KT 08/06 A2975 RMK A01 T00810058  RH  086%=      5-min Rain = 0
KMD1 110658Z 27002KT 08/06 A2975 RMK A01 T00810060  RH  087%=      5-min Rain = 0
KMD1 110659Z 27002KT 08/06 A2975 RMK A01 T00810060  RH  087%=      5-min Rain = 0
KMD1 110700Z 27002KT 08/06 A2975 RMK A01 T00810060  RH  087%=      5-min Rain = 0
KMD1 110701Z 26002KT 08/06 A2975 RMK A01 T00800058  RH  086%=      5-min Rain = 0
KMD1 110702Z 26002KT 08/06 A2975 RMK A01 T00800057  RH  086%=      5-min Rain = 0
KMD1 110703Z 28002KT 08/06 A2975 RMK A01 T00790058  RH  086%=      5-min Rain = 0
KMD1 110704Z 28002KT 08/06 A2974 RMK A01 T00780055  RH  085%=      5-min Rain = 0
KMD1 110705Z 29003KT 08/06 A2974 RMK A01 T00780059  RH  087%=      5-min Rain = 0
KMD1 110706Z 28003KT 08/06 A2974 RMK A01 T00800062  RH  088%=      5-min Rain = 0
KMD1 110707Z 26003KT 08/06 A2974 RMK A01 T00810060  RH  087%=      5-min Rain = 0
KMD1 110708Z 24003KT 08/06 A2974 RMK A01 T00810059  RH  086%=      5-min Rain = 0
KMD1 110709Z 25003KT 08/06 A2974 RMK A01 T00800060  RH  087%=      5-min Rain = 0
KMD1 110710Z 23004KT 08/06 A2974 RMK A01 T00810059  RH  086%=      5-min Rain = 0
KMD1 110711Z 23004KT 08/06 A2974 RMK A01 T00810059  RH  086%=      5-min Rain = 0
KMD1 110712Z 21004KT 08/06 A2974 RMK A01 T00810059  RH  086%=      5-min Rain = 0
KMD1 110713Z 21004KT 08/06 A2974 RMK A01 T00810060  RH  086%=      5-min Rain = 0
KMD1 110714Z 23003KT 08/06 A2974 RMK A01 T00810061  RH  087%=      5-min Rain = 0
KMD1 110715Z 23003KT 08/06 A2974 RMK A01 T00820062  RH  087%=      5-min Rain = 0
KMD1 110716Z 24003KT 08/06 A2974 RMK A01 T00820061  RH  087%=      5-min Rain = 0
KMD1 110717Z 25003KT 08/06 A2974 RMK A01 T00810057  RH  085%=      5-min Rain = 0
KMD1 110718Z 24004KT 08/06 A2974 RMK A01 T00790056  RH  085%=      5-min Rain = 0
KMD1 110719Z 24004KT 08/06 A2974 RMK A01 T00790058  RH  086%=      5-min Rain = 0
KMD1 110720Z 26003KT 08/06 A2975 RMK A01 T00790057  RH  086%=      5-min Rain = 0
KMD1 110721Z 27003KT 08/06 A2974 RMK A01 T00770055  RH  086%=      5-min Rain = 0
KMD1 110722Z 26003KT 08/06 A2974 RMK A01 T00770056  RH  087%=      5-min Rain = 0
KMD1 110723Z 26002KT 08/06 A2974 RMK A01 T00770057  RH  087%=      5-min Rain = 0
KMD1 110724Z 24003KT 08/06 A2974 RMK A01 T00770057  RH  087%=      5-min Rain = 0
KMD1 110725Z 23003KT 08/06 A2974 RMK A01 T00780060  RH  088%=      5-min Rain = 0
KMD1 110726Z 25003KT 08/06 A2974 RMK A01 T00790061  RH  088%=      5-min Rain = 0
KMD1 110727Z 26004KT 08/06 A2974 RMK A01 T00800060  RH  088%=      5-min Rain = 0
KMD1 110728Z 25005KT 08/06 A2974 RMK A01 T00800060  RH  087%=      5-min Rain = 0
KMD1 110729Z 23004KT 08/06 A2974 RMK A01 T00810060  RH  087%=      5-min Rain = 0
KMD1 110730Z 22004KT 08/06 A2974 RMK A01 T00810061  RH  087%=      5-min Rain = 0
KMD1 110731Z 23004KT 08/06 A2974 RMK A01 T00810061  RH  087%=      5-min Rain = 0
KMD1 110732Z 23005KT 08/06 A2974 RMK A01 T00820061  RH  087%=      5-min Rain = 0
KMD1 110733Z 22005KT 08/06 A2974 RMK A01 T00820061  RH  087%=      5-min Rain = 0
KMD1 110734Z 23005KT 08/06 A2974 RMK A01 T00820061  RH  086%=      5-min Rain = 0
KMD1 110735Z 23004KT 08/06 A2974 RMK A01 T00820060  RH  086%=      5-min Rain = 0
KMD1 110736Z 23005KT 08/06 A2974 RMK A01 T00830060  RH  086%=      5-min Rain = 0
KMD1 110737Z 23005KT 08/06 A2974 RMK A01 T00830061  RH  086%=      5-min Rain = 0
KMD1 110738Z 22005KT 08/06 A2974 RMK A01 T00830061  RH  086%=      5-min Rain = 0
KMD1 110739Z 23004KT 08/06 A2974 RMK A01 T00840062  RH  086%=      5-min Rain = 0
KMD1 110740Z 23004KT 08/06 A2974 RMK A01 T00840062  RH  086%=      5-min Rain = 0
KMD1 110741Z 21005KT 09/06 A2974 RMK A01 T00850062  RH  085%=      5-min Rain = 0
KMD1 110742Z 22005KT 09/06 A2974 RMK A01 T00860061  RH  085%=      5-min Rain = 0
KMD1 110743Z 22005KT 09/06 A2974 RMK A01 T00860062  RH  084%=      5-min Rain = 0
KMD1 110744Z 23006KT 09/06 A2974 RMK A01 T00870062  RH  084%=      5-min Rain = 0
KMD1 110745Z 23005KT 09/06 A2974 RMK A01 T00880062  RH  084%=      5-min Rain = 0
KMD1 110746Z 22004KT 09/06 A2974 RMK A01 T00880062  RH  084%=      5-min Rain = 0
KMD1 110747Z 22004KT 09/06 A2974 RMK A01 T00880062  RH  083%=      5-min Rain = 0
KMD1 110748Z 22003KT 09/06 A2974 RMK A01 T00900062  RH  083%=      5-min Rain = 0
KMD1 110749Z 21001KT 09/06 A2974 RMK A01 T00900060  RH  082%=      5-min Rain = 0
KMD1 110750Z 19002KT 09/06 A2974 RMK A01 T00880055  RH  080%=      5-min Rain = 0
KMD1 110751Z 21003KT 09/05 A2974 RMK A01 T00850054  RH  080%=      5-min Rain = 0
KMD1 110752Z 21003KT 08/05 A2974 RMK A01 T00840053  RH  081%=      5-min Rain = 0
KMD1 110753Z 20003KT 08/05 A2974 RMK A01 T00830053  RH  082%=      5-min Rain = 0
KMD1 110754Z 20004KT 08/06 A2974 RMK A01 T00820055  RH  083%=      5-min Rain = 0
KMD1 110755Z 20005KT 08/06 A2974 RMK A01 T00820057  RH  084%=      5-min Rain = 0
KMD1 110756Z 21005KT 08/06 A2974 RMK A01 T00820057  RH  085%=      5-min Rain = 0
KMD1 110757Z 21005KT 08/06 A2975 RMK A01 T00810057  RH  085%=      5-min Rain = 0
KMD1 110758Z 21005KT 08/06 A2975 RMK A01 T00800056  RH  085%=      5-min Rain = 0
KMD1 110759Z 21005KT 08/06 A2975 RMK A01 T00790056  RH  086%=      5-min Rain = 0
KMD1 110800Z 22005KT 08/06 A2975 RMK A01 T00780056  RH  086%=      5-min Rain = 0
KMD1 110801Z 22005KT 08/06 A2975 RMK A01 T00770056  RH  087%=      5-min Rain = 0
KMD1 110802Z 22005KT 08/06 A2975 RMK A01 T00760055  RH  087%=      5-min Rain = 0
KMD1 110803Z 22005KT 08/05 A2975 RMK A01 T00750054  RH  087%=      5-min Rain = 0
KMD1 110804Z 21003KT 07/05 A2975 RMK A01 T00730054  RH  087%=      5-min Rain = 0
KMD1 110805Z 22002KT 07/05 A2975 RMK A01 T00730054  RH  087%=      5-min Rain = 0
KMD1 110806Z 23002KT 07/05 A2975 RMK A01 T00720052  RH  087%=      5-min Rain = 0
KMD1 110807Z 23002KT 07/05 A2975 RMK A01 T00700050  RH  087%=      5-min Rain = 0
KMD1 110808Z 21002KT 07/05 A2975 RMK A01 T00700050  RH  087%=      5-min Rain = 0
KMD1 110809Z 22002KT 07/05 A2975 RMK A01 T00700050  RH  088%=      5-min Rain = 0
KMD1 110810Z 23001KT 07/05 A2975 RMK A01 T00700051  RH  088%=      5-min Rain = 0
KMD1 110811Z 22001KT 07/05 A2975 RMK A01 T00700052  RH  088%=      5-min Rain = 0
KMD1 110812Z 21001KT 07/05 A2975 RMK A01 T00690052  RH  088%=      5-min Rain = 0
KMD1 110813Z 19001KT 07/05 A2975 RMK A01 T00690052  RH  089%=      5-min Rain = 0
KMD1 110814Z 20000KT 07/05 A2975 RMK A01 T00680049  RH  087%=      5-min Rain = 0
KMD1 110815Z 00000KT 06/04 A2975 RMK A01 T00620039  RH  085%=      5-min Rain = 0
KMD1 110816Z 00000KT 06/04 A2975 RMK A01 T00600041  RH  087%=      5-min Rain = 0
KMD1 110817Z 00000KT 06/04 A2975 RMK A01 T00590042  RH  088%=      5-min Rain = 0
KMD1 110818Z 00000KT 06/04 A2975 RMK A01 T00560036  RH  087%=      5-min Rain = 0
KMD1 110819Z 00000KT 05/03 A2974 RMK A01 T00530034  RH  088%=      5-min Rain = 0
KMD1 110820Z 00000KT 05/04 A2974 RMK A01 T00540041  RH  091%=      5-min Rain = 0
KMD1 110821Z 00000KT 06/05 A2974 RMK A01 T00580047  RH  093%=      5-min Rain = 0
KMD1 110822Z 00000KT 06/05 A2974 RMK A01 T00600050  RH  093%=      5-min Rain = 0
KMD1 110823Z 00000KT 06/05 A2974 RMK A01 T00590046  RH  091%=      5-min Rain = 0
KMD1 110824Z 00000KT 06/05 A2974 RMK A01 T00580045  RH  092%=      5-min Rain = 0
KMD1 110825Z 06000KT 06/05 A2974 RMK A01 T00600049  RH  093%=      5-min Rain = 0
KMD1 110826Z 04001KT 06/05 A2974 RMK A01 T00590046  RH  091%=      5-min Rain = 0
KMD1 110827Z 00003KT 06/04 A2974 RMK A01 T00570042  RH  090%=      5-min Rain = 0
KMD1 110828Z 01003KT 05/04 A2974 RMK A01 T00530037  RH  090%=      5-min Rain = 0
KMD1 110829Z 01004KT 05/03 A2974 RMK A01 T00500034  RH  090%=      5-min Rain = 0
KMD1 110830Z 36006KT 05/03 A2974 RMK A01 T00470033  RH  091%=      5-min Rain = 0
KMD1 110831Z 00006KT 05/04 A2974 RMK A01 T00480037  RH  093%=      5-min Rain = 0
KMD1 110832Z 00006KT 05/04 A2973 RMK A01 T00510042  RH  094%=      5-min Rain = 0
KMD1 110833Z 01005KT 05/05 A2973 RMK A01 T00530045  RH  095%=      5-min Rain = 0
KMD1 110834Z 35006KT 05/04 A2974 RMK A01 T00520044  RH  094%=      5-min Rain = 0
KMD1 110835Z 35005KT 05/04 A2974 RMK A01 T00520042  RH  094%=      5-min Rain = 0
KMD1 110836Z 34004KT 05/04 A2974 RMK A01 T00510042  RH  094%=      5-min Rain = 0
KMD1 110837Z 32005KT 05/04 A2974 RMK A01 T00510042  RH  094%=      5-min Rain = 0
KMD1 110838Z 31003KT 05/04 A2975 RMK A01 T00510042  RH  094%=      5-min Rain = 0
KMD1 110839Z 29003KT 05/05 A2975 RMK A01 T00530046  RH  095%=      5-min Rain = 0
KMD1 110840Z 30002KT 06/05 A2974 RMK A01 T00560049  RH  096%=      5-min Rain = 0
KMD1 110841Z 28002KT 06/05 A2974 RMK A01 T00570049  RH  095%=      5-min Rain = 0
KMD1 110842Z 29002KT 06/05 A2975 RMK A01 T00560046  RH  093%=      5-min Rain = 0
KMD1 110843Z 30002KT 05/04 A2975 RMK A01 T00530040  RH  092%=      5-min Rain = 0
KMD1 110844Z 29002KT 05/04 A2975 RMK A01 T00500036  RH  091%=      5-min Rain = 0
KMD1 110845Z 29002KT 05/03 A2975 RMK A01 T00480034  RH  091%=      5-min Rain = 0
KMD1 110846Z 30001KT 05/03 A2975 RMK A01 T00460033  RH  091%=      5-min Rain = 0
KMD1 110847Z 29001KT 05/03 A2975 RMK A01 T00450032  RH  091%=      5-min Rain = 0
KMD1 110848Z 23001KT 04/03 A2975 RMK A01 T00440031  RH  091%=      5-min Rain = 0
KMD1 110849Z 21001KT 04/03 A2975 RMK A01 T00410027  RH  090%=      5-min Rain = 0
KMD1 110850Z 21000KT 04/03 A2975 RMK A01 T00400026  RH  091%=      5-min Rain = 0
KMD1 110851Z 00000KT 04/03 A2975 RMK A01 T00390027  RH  092%=      5-min Rain = 0
KMD1 110852Z 00000KT 04/03 A2975 RMK A01 T00390028  RH  093%=      5-min Rain = 0
KMD1 110853Z 00000KT 04/03 A2975 RMK A01 T00400030  RH  094%=      5-min Rain = 0
KMD1 110854Z 00000KT 04/03 A2975 RMK A01 T00420033  RH  094%=      5-min Rain = 0
KMD1 110855Z 00000KT 04/03 A2975 RMK A01 T00420034  RH  094%=      5-min Rain = 0
KMD1 110856Z 20000KT 04/03 A2975 RMK A01 T00420034  RH  095%=      5-min Rain = 0
KMD1 110857Z 21001KT 04/03 A2975 RMK A01 T00420034  RH  094%=      5-min Rain = 0
KMD1 110858Z 20001KT 04/03 A2975 RMK A01 T00410033  RH  094%=      5-min Rain = 0
KMD1 110859Z 19002KT 04/03 A2975 RMK A01 T00410032  RH  094%=      5-min Rain = 0
KMD1 110900Z 19001KT 04/03 A2975 RMK A01 T00400031  RH  094%=      5-min Rain = 0
KMD1 110901Z 18001KT 04/03 A2975 RMK A01 T00380029  RH  094%=      5-min Rain = 0
KMD1 110902Z 18001KT 04/03 A2975 RMK A01 T00360027  RH  093%=      5-min Rain = 0
KMD1 110903Z 20001KT 04/03 A2975 RMK A01 T00360026  RH  094%=      5-min Rain = 0
KMD1 110904Z 21001KT 04/03 A2975 RMK A01 T00350026  RH  094%=      5-min Rain = 0
KMD1 110905Z 21001KT 04/03 A2975 RMK A01 T00350026  RH  094%=      5-min Rain = 0
KMD1 110906Z 20001KT 04/03 A2975 RMK A01 T00350027  RH  094%=      5-min Rain = 0
KMD1 110907Z 22002KT 04/03 A2975 RMK A01 T00350027  RH  095%=      5-min Rain = 0
KMD1 110908Z 22002KT 04/03 A2975 RMK A01 T00360028  RH  095%=      5-min Rain = 0
KMD1 110909Z 24003KT 04/03 A2975 RMK A01 T00360029  RH  095%=      5-min Rain = 0
KMD1 110910Z 24003KT 04/03 A2975 RMK A01 T00370029  RH  095%=      5-min Rain = 0
KMD1 110911Z 25004KT 04/03 A2975 RMK A01 T00370029  RH  095%=      5-min Rain = 0
KMD1 110912Z 26004KT 04/03 A2975 RMK A01 T00370029  RH  095%=      5-min Rain = 0
KMD1 110913Z 25004KT 04/03 A2975 RMK A01 T00380030  RH  095%=      5-min Rain = 0
KMD1 110914Z 23004KT 04/03 A2975 RMK A01 T00400033  RH  095%=      5-min Rain = 0
KMD1 110915Z 23004KT 04/03 A2975 RMK A01 T00400032  RH  095%=      5-min Rain = 0
KMD1 110916Z 23003KT 04/03 A2975 RMK A01 T00400031  RH  094%=      5-min Rain = 0
KMD1 110917Z 22003KT 04/03 A2975 RMK A01 T00390030  RH  094%=      5-min Rain = 0
KMD1 110918Z 25002KT 04/03 A2975 RMK A01 T00380029  RH  094%=      5-min Rain = 0
KMD1 110919Z 26003KT 04/03 A2975 RMK A01 T00380029  RH  094%=      5-min Rain = 0
KMD1 110920Z 27003KT 04/03 A2975 RMK A01 T00390030  RH  094%=      5-min Rain = 0
KMD1 110921Z 26003KT 04/03 A2975 RMK A01 T00390031  RH  094%=      5-min Rain = 0
KMD1 110922Z 23003KT 04/03 A2975 RMK A01 T00400032  RH  094%=      5-min Rain = 0
KMD1 110923Z 22003KT 04/03 A2975 RMK A01 T00400031  RH  094%=      5-min Rain = 0
KMD1 110924Z 21003KT 04/03 A2975 RMK A01 T00400031  RH  094%=      5-min Rain = 0
KMD1 110925Z 22003KT 04/03 A2976 RMK A01 T00400031  RH  094%=      5-min Rain = 0
KMD1 110926Z 26003KT 04/03 A2976 RMK A01 T00400031  RH  094%=      5-min Rain = 0
KMD1 110927Z 29004KT 04/03 A2976 RMK A01 T00390029  RH  093%=      5-min Rain = 0
KMD1 110928Z 29004KT 04/03 A2976 RMK A01 T00370025  RH  092%=      5-min Rain = 0
KMD1 110929Z 29004KT 04/02 A2976 RMK A01 T00350023  RH  092%=      5-min Rain = 0
KMD1 110930Z 28004KT 04/03 A2976 RMK A01 T00360027  RH  093%=      5-min Rain = 0
KMD1 110931Z 28005KT 04/03 A2976 RMK A01 T00370028  RH  094%=      5-min Rain = 0
KMD1 110932Z 28004KT 04/03 A2976 RMK A01 T00390030  RH  094%=      5-min Rain = 0
KMD1 110933Z 29004KT 04/03 A2976 RMK A01 T00410033  RH  095%=      5-min Rain = 0
KMD1 110934Z 28004KT 04/04 A2976 RMK A01 T00430035  RH  095%=      5-min Rain = 0
KMD1 110935Z 28004KT 04/04 A2976 RMK A01 T00440036  RH  095%=      5-min Rain = 0
KMD1 110936Z 28003KT 04/04 A2976 RMK A01 T00440036  RH  094%=      5-min Rain = 0
KMD1 110937Z 28003KT 05/04 A2976 RMK A01 T00450036  RH  094%=      5-min Rain = 0
KMD1 110938Z 31002KT 04/03 A2976 RMK A01 T00430033  RH  093%=      5-min Rain = 0
KMD1 110939Z 33002KT 04/03 A2976 RMK A01 T00400028  RH  092%=      5-min Rain = 0
KMD1 110940Z 33003KT 04/03 A2976 RMK A01 T00380026  RH  092%=      5-min Rain = 0
KMD1 110941Z 31004KT 04/03 A2976 RMK A01 T00370026  RH  093%=      5-min Rain = 0
KMD1 110942Z 30002KT 04/03 A2976 RMK A01 T00370027  RH  093%=      5-min Rain = 0
KMD1 110943Z 25001KT 04/03 A2976 RMK A01 T00380030  RH  094%=      5-min Rain = 0
KMD1 110944Z 25003KT 04/03 A2976 RMK A01 T00390030  RH  094%=      5-min Rain = 0
KMD1 110945Z 23005KT 04/03 A2977 RMK A01 T00390030  RH  094%=      5-min Rain = 0
KMD1 110946Z 22005KT 04/03 A2977 RMK A01 T00390029  RH  094%=      5-min Rain = 0
KMD1 110947Z 24006KT 04/03 A2977 RMK A01 T00370027  RH  093%=      5-min Rain = 0
KMD1 110948Z 25005KT 04/03 A2977 RMK A01 T00360026  RH  094%=      5-min Rain = 0
KMD1 110949Z 25004KT 04/03 A2977 RMK A01 T00360028  RH  094%=      5-min Rain = 0
KMD1 110950Z 24003KT 04/03 A2977 RMK A01 T00370029  RH  095%=      5-min Rain = 0
KMD1 110951Z 21002KT 04/03 A2977 RMK A01 T00370029  RH  095%=      5-min Rain = 0
KMD1 110952Z 23003KT 04/03 A2976 RMK A01 T00380030  RH  095%=      5-min Rain = 0
KMD1 110953Z 26004KT 04/03 A2976 RMK A01 T00390031  RH  095%=      5-min Rain = 0
KMD1 110954Z 27005KT 04/03 A2976 RMK A01 T00390031  RH  095%=      5-min Rain = 0
KMD1 110955Z 28003KT 04/03 A2976 RMK A01 T00390031  RH  095%=      5-min Rain = 0
KMD1 110956Z 26003KT 04/03 A2976 RMK A01 T00390031  RH  095%=      5-min Rain = 0
KMD1 110957Z 25002KT 04/03 A2976 RMK A01 T00400032  RH  095%=      5-min Rain = 0
KMD1 110958Z 27002KT 04/03 A2976 RMK A01 T00410033  RH  095%=      5-min Rain = 0
KMD1 110959Z 29004KT 04/03 A2976 RMK A01 T00410034  RH  095%=      5-min Rain = 0
KMD1 111000Z 29004KT 04/03 A2976 RMK A01 T00410032  RH  094%=      5-min Rain = 0
KMD1 111001Z 28003KT 04/03 A2976 RMK A01 T00380027  RH  093%=      5-min Rain = 0
KMD1 111002Z 29003KT 04/03 A2976 RMK A01 T00360025  RH  092%=      5-min Rain = 0
KMD1 111003Z 29002KT 04/02 A2976 RMK A01 T00350024  RH  092%=      5-min Rain = 0
KMD1 111004Z 29003KT 04/02 A2977 RMK A01 T00350023  RH  092%=      5-min Rain = 0
KMD1 111005Z 28003KT 04/02 A2977 RMK A01 T00350024  RH  093%=      5-min Rain = 0
KMD1 111006Z 28003KT 04/03 A2977 RMK A01 T00360027  RH  093%=      5-min Rain = 0
KMD1 111007Z 28004KT 04/03 A2977 RMK A01 T00380028  RH  094%=      5-min Rain = 0
KMD1 111008Z 28004KT 04/03 A2977 RMK A01 T00400031  RH  094%=      5-min Rain = 0
KMD1 111009Z 26004KT 04/03 A2977 RMK A01 T00420034  RH  094%=      5-min Rain = 0
KMD1 111010Z 26005KT 05/04 A2977 RMK A01 T00460038  RH  095%=      5-min Rain = 0
KMD1 111011Z 26005KT 05/04 A2977 RMK A01 T00470036  RH  093%=      5-min Rain = 0
KMD1 111012Z 26005KT 05/03 A2977 RMK A01 T00460034  RH  092%=      5-min Rain = 0
KMD1 111013Z 26006KT 05/03 A2977 RMK A01 T00450032  RH  092%=      5-min Rain = 0
KMD1 111014Z 27005KT 04/03 A2977 RMK A01 T00440032  RH  092%=      5-min Rain = 0
KMD1 111015Z 28005KT 04/03 A2977 RMK A01 T00440033  RH  093%=      5-min Rain = 0
KMD1 111016Z 28005KT 05/03 A2977 RMK A01 T00450033  RH  092%=      5-min Rain = 0
KMD1 111017Z 27005KT 04/03 A2977 RMK A01 T00440032  RH  092%=      5-min Rain = 0
KMD1 111018Z 27004KT 05/04 A2977 RMK A01 T00450035  RH  093%=      5-min Rain = 0
KMD1 111019Z 28004KT 05/04 A2977 RMK A01 T00480038  RH  093%=      5-min Rain = 0
KMD1 111020Z 28004KT 05/04 A2977 RMK A01 T00500039  RH  093%=      5-min Rain = 0
KMD1 111021Z 28003KT 05/04 A2977 RMK A01 T00500038  RH  092%=      5-min Rain = 0
KMD1 111022Z 28003KT 05/04 A2977 RMK A01 T00500038  RH  092%=      5-min Rain = 0
KMD1 111023Z 27002KT 05/04 A2977 RMK A01 T00490036  RH  091%=      5-min Rain = 0
KMD1 111024Z 27002KT 05/03 A2977 RMK A01 T00480034  RH  091%=      5-min Rain = 0
KMD1 111025Z 26001KT 05/03 A2977 RMK A01 T00470032  RH  091%=      5-min Rain = 0
KMD1 111026Z 27002KT 05/03 A2977 RMK A01 T00450031  RH  091%=      5-min Rain = 0
KMD1 111027Z 27002KT 04/03 A2977 RMK A01 T00440030  RH  091%=      5-min Rain = 0
KMD1 111028Z 25002KT 04/03 A2977 RMK A01 T00430029  RH  091%=      5-min Rain = 0
KMD1 111029Z 23001KT 04/03 A2977 RMK A01 T00430030  RH  092%=      5-min Rain = 0
KMD1 111030Z 21002KT 04/03 A2977 RMK A01 T00420030  RH  092%=      5-min Rain = 0
KMD1 111031Z 21003KT 04/03 A2977 RMK A01 T00410030  RH  092%=      5-min Rain = 0
KMD1 111032Z 21003KT 04/03 A2977 RMK A01 T00410030  RH  093%=      5-min Rain = 0
KMD1 111033Z 20004KT 04/03 A2977 RMK A01 T00410031  RH  093%=      5-min Rain = 0
KMD1 111034Z 21003KT 04/03 A2977 RMK A01 T00410031  RH  093%=      5-min Rain = 0
KMD1 111035Z 22003KT 04/03 A2977 RMK A01 T00420032  RH  094%=      5-min Rain = 0
KMD1 111036Z 22004KT 04/03 A2977 RMK A01 T00430033  RH  094%=      5-min Rain = 0
KMD1 111037Z 23003KT 04/03 A2977 RMK A01 T00430034  RH  094%=      5-min Rain = 0
KMD1 111038Z 24004KT 04/04 A2977 RMK A01 T00440035  RH  094%=      5-min Rain = 0
KMD1 111039Z 23003KT 05/04 A2977 RMK A01 T00450035  RH  094%=      5-min Rain = 0
KMD1 111040Z 23003KT 05/04 A2977 RMK A01 T00450035  RH  093%=      5-min Rain = 0
KMD1 111041Z 23004KT 05/03 A2977 RMK A01 T00450034  RH  093%=      5-min Rain = 0
KMD1 111042Z 23004KT 05/03 A2977 RMK A01 T00450034  RH  093%=      5-min Rain = 0
KMD1 111043Z 22004KT 05/03 A2977 RMK A01 T00450034  RH  093%=      5-min Rain = 0
KMD1 111044Z 22004KT 05/04 A2977 RMK A01 T00460035  RH  093%=      5-min Rain = 0
KMD1 111045Z 22004KT 05/04 A2977 RMK A01 T00460035  RH  093%=      5-min Rain = 0
KMD1 111046Z 22003KT 05/04 A2977 RMK A01 T00470036  RH  093%=      5-min Rain = 0
KMD1 111047Z 23003KT 05/04 A2977 RMK A01 T00470036  RH  093%=      5-min Rain = 0
KMD1 111048Z 24004KT 05/04 A2977 RMK A01 T00470036  RH  092%=      5-min Rain = 0
KMD1 111049Z 25004KT 05/04 A2977 RMK A01 T00470036  RH  092%=      5-min Rain = 0
KMD1 111050Z 25004KT 05/04 A2977 RMK A01 T00480036  RH  092%=      5-min Rain = 0
KMD1 111051Z 26003KT 05/04 A2977 RMK A01 T00480036  RH  092%=      5-min Rain = 0
KMD1 111052Z 26002KT 05/04 A2977 RMK A01 T00470035  RH  092%=      5-min Rain = 0
KMD1 111053Z 26002KT 05/04 A2977 RMK A01 T00480035  RH  092%=      5-min Rain = 0
KMD1 111054Z 24003KT 05/04 A2977 RMK A01 T00480035  RH  091%=      5-min Rain = 0
KMD1 111055Z 24002KT 05/03 A2977 RMK A01 T00470034  RH  091%=      5-min Rain = 0
KMD1 111056Z 25003KT 05/03 A2977 RMK A01 T00470034  RH  091%=      5-min Rain = 0
KMD1 111057Z 24002KT 05/03 A2977 RMK A01 T00470034  RH  091%=      5-min Rain = 0
KMD1 111058Z 24003KT 05/03 A2977 RMK A01 T00470033  RH  091%=      5-min Rain = 0
KMD1 111059Z 25003KT 05/03 A2977 RMK A01 T00470033  RH  091%=      5-min Rain = 0
KMD1 111100Z 25003KT 05/03 A2977 RMK A01 T00470033  RH  091%=      5-min Rain = 0
KMD1 111101Z 23003KT 05/03 A2977 RMK A01 T00470033  RH  091%=      5-min Rain = 0
KMD1 111102Z 24003KT 05/03 A2977 RMK A01 T00470034  RH  091%=      5-min Rain = 0
KMD1 111103Z 24003KT 05/03 A2977 RMK A01 T00480033  RH  090%=      5-min Rain = 0
KMD1 111104Z 24003KT 05/03 A2977 RMK A01 T00480033  RH  090%=      5-min Rain = 0
KMD1 111105Z 25003KT 05/03 A2977 RMK A01 T00480033  RH  090%=      5-min Rain = 0
KMD1 111106Z 26003KT 05/03 A2977 RMK A01 T00470032  RH  090%=      5-min Rain = 0
KMD1 111107Z 26003KT 05/03 A2977 RMK A01 T00480033  RH  090%=      5-min Rain = 0
KMD1 111108Z 25003KT 05/03 A2977 RMK A01 T00470032  RH  090%=      5-min Rain = 0
KMD1 111109Z 24003KT 05/03 A2977 RMK A01 T00480033  RH  090%=      5-min Rain = 0
KMD1 111110Z 26002KT 05/03 A2977 RMK A01 T00490033  RH  090%=      5-min Rain = 0
KMD1 111111Z 26002KT 05/03 A2977 RMK A01 T00490034  RH  090%=      5-min Rain = 0
KMD1 111112Z 26002KT 05/03 A2977 RMK A01 T00500034  RH  090%=      5-min Rain = 0
KMD1 111113Z 26002KT 05/03 A2977 RMK A01 T00500034  RH  089%=      5-min Rain = 0
KMD1 111114Z 25003KT 05/04 A2977 RMK A01 T00510035  RH  089%=      5-min Rain = 0
KMD1 111115Z 26002KT 05/03 A2977 RMK A01 T00510034  RH  089%=      5-min Rain = 0
KMD1 111116Z 28002KT 05/03 A2977 RMK A01 T00520034  RH  089%=      5-min Rain = 0
KMD1 111117Z 29003KT 05/03 A2977 RMK A01 T00520034  RH  088%=      5-min Rain = 0
KMD1 111118Z 30002KT 05/03 A2977 RMK A01 T00520034  RH  088%=      5-min Rain = 0
KMD1 111119Z 29001KT 05/03 A2977 RMK A01 T00520034  RH  088%=      5-min Rain = 0
KMD1 111120Z 30002KT 05/03 A2977 RMK A01 T00520034  RH  088%=      5-min Rain = 0
KMD1 111121Z 31002KT 05/03 A2977 RMK A01 T00520034  RH  088%=      5-min Rain = 0
KMD1 111122Z 30001KT 05/03 A2977 RMK A01 T00520033  RH  088%=      5-min Rain = 0
KMD1 111123Z 27001KT 05/03 A2977 RMK A01 T00520034  RH  088%=      5-min Rain = 0
KMD1 111124Z 25002KT 05/03 A2977 RMK A01 T00520034  RH  088%=      5-min Rain = 0
KMD1 111125Z 26001KT 05/03 A2977 RMK A01 T00520034  RH  088%=      5-min Rain = 0
KMD1 111126Z 24000KT 05/03 A2977 RMK A01 T00520034  RH  088%=      5-min Rain = 0
KMD1 111127Z 00000KT 05/03 A2977 RMK A01 T00520034  RH  088%=      5-min Rain = 0
KMD1 111128Z 22000KT 05/03 A2977 RMK A01 T00520033  RH  088%=      5-min Rain = 0
KMD1 111129Z 21001KT 05/03 A2977 RMK A01 T00510032  RH  088%=      5-min Rain = 0
KMD1 111130Z 18000KT 05/03 A2977 RMK A01 T00510032  RH  088%=      5-min Rain = 0
KMD1 111131Z 30000KT 05/03 A2977 RMK A01 T00500031  RH  088%=      5-min Rain = 0
KMD1 111132Z 30001KT 05/03 A2977 RMK A01 T00490030  RH  088%=      5-min Rain = 0
KMD1 111133Z 28000KT 05/03 A2977 RMK A01 T00490031  RH  088%=      5-min Rain = 0
KMD1 111134Z 18000KT 05/03 A2977 RMK A01 T00490031  RH  088%=      5-min Rain = 0
KMD1 111135Z 20000KT 05/03 A2977 RMK A01 T00490031  RH  088%=      5-min Rain = 0
KMD1 111136Z 19000KT 05/03 A2977 RMK A01 T00490031  RH  088%=      5-min Rain = 0
KMD1 111137Z 20000KT 05/03 A2977 RMK A01 T00490031  RH  088%=      5-min Rain = 0
KMD1 111138Z 26000KT 05/03 A2977 RMK A01 T00500031  RH  088%=      5-min Rain = 0
KMD1 111139Z 27000KT 05/03 A2977 RMK A01 T00490031  RH  088%=      5-min Rain = 0
KMD1 111140Z 28001KT 05/03 A2977 RMK A01 T00490031  RH  088%=      5-min Rain = 0
KMD1 111141Z 27001KT 05/03 A2977 RMK A01 T00500032  RH  089%=      5-min Rain = 0
KMD1 111142Z 29000KT 05/03 A2977 RMK A01 T00500033  RH  089%=      5-min Rain = 0
KMD1 111143Z 26001KT 05/03 A2977 RMK A01 T00510033  RH  089%=      5-min Rain = 0
KMD1 111144Z 27001KT 05/03 A2977 RMK A01 T00510034  RH  089%=      5-min Rain = 0
KMD1 111145Z 28001KT 05/03 A2977 RMK A01 T00510034  RH  089%=      5-min Rain = 0
KMD1 111146Z 27001KT 05/03 A2977 RMK A01 T00520034  RH  089%=      5-min Rain = 0
KMD1 111147Z 26001KT 05/04 A2977 RMK A01 T00520035  RH  089%=      5-min Rain = 0
KMD1 111148Z 25002KT 05/04 A2977 RMK A01 T00520035  RH  088%=      5-min Rain = 0
KMD1 111149Z 25001KT 05/04 A2977 RMK A01 T00530035  RH  088%=      5-min Rain = 0
KMD1 111150Z 25002KT 05/04 A2977 RMK A01 T00540035  RH  088%=      5-min Rain = 0
KMD1 111151Z 26002KT 05/04 A2978 RMK A01 T00540035  RH  088%=      5-min Rain = 0
KMD1 111152Z 26002KT 06/04 A2978 RMK A01 T00550036  RH  087%=      5-min Rain = 0
KMD1 111153Z 26002KT 06/04 A2978 RMK A01 T00560036  RH  087%=      5-min Rain = 0
KMD1 111154Z 26002KT 06/04 A2978 RMK A01 T00560036  RH  087%=      5-min Rain = 0
KMD1 111155Z 26002KT 06/04 A2978 RMK A01 T00570036  RH  086%=      5-min Rain = 0
KMD1 111156Z 26002KT 06/04 A2978 RMK A01 T00570036  RH  086%=      5-min Rain = 0
KMD1 111157Z 26002KT 06/04 A2978 RMK A01 T00580036  RH  086%=      5-min Rain = 0
KMD1 111158Z 26002KT 06/04 A2978 RMK A01 T00580035  RH  085%=      5-min Rain = 0
KMD1 111159Z 26003KT 06/04 A2978 RMK A01 T00580035  RH  085%=      5-min Rain = 0
KMD1 111200Z 26002KT 06/04 A2978 RMK A01 T00580035  RH  085%=      5-min Rain = 0
KMD1 111201Z 24002KT 06/04 A2977 RMK A01 T00580035  RH  085%=      5-min Rain = 0
KMD1 111202Z 25003KT 06/04 A2978 RMK A01 T00580035  RH  085%=      5-min Rain = 0
KMD1 111203Z 25003KT 06/04 A2978 RMK A01 T00580035  RH  085%=      5-min Rain = 0
KMD1 111204Z 25003KT 06/04 A2978 RMK A01 T00580035  RH  085%=      5-min Rain = 0
KMD1 111205Z 26003KT 06/04 A2977 RMK A01 T00580035  RH  085%=      5-min Rain = 0
KMD1 111206Z 26003KT 06/04 A2977 RMK A01 T00590035  RH  085%=      5-min Rain = 0
KMD1 111207Z 25003KT 06/03 A2977 RMK A01 T00580034  RH  085%=      5-min Rain = 0
KMD1 111208Z 24003KT 06/03 A2977 RMK A01 T00580034  RH  085%=      5-min Rain = 0
KMD1 111209Z 24003KT 06/04 A2978 RMK A01 T00580035  RH  085%=      5-min Rain = 0
KMD1 111210Z 24003KT 06/03 A2978 RMK A01 T00580034  RH  085%=      5-min Rain = 0
KMD1 111211Z 23002KT 06/03 A2978 RMK A01 T00570034  RH  085%=      5-min Rain = 0
KMD1 111212Z 23002KT 06/03 A2978 RMK A01 T00570034  RH  086%=      5-min Rain = 0
KMD1 111213Z 23002KT 06/03 A2978 RMK A01 T00560034  RH  085%=      5-min Rain = 0
KMD1 111214Z 23002KT 06/03 A2978 RMK A01 T00550033  RH  086%=      5-min Rain = 0
KMD1 111215Z 23002KT 05/03 A2978 RMK A01 T00540032  RH  086%=      5-min Rain = 0
KMD1 111216Z 23002KT 05/03 A2978 RMK A01 T00520030  RH  086%=      5-min Rain = 0
KMD1 111217Z 24002KT 05/03 A2978 RMK A01 T00510029  RH  086%=      5-min Rain = 0
KMD1 111218Z 24002KT 05/03 A2978 RMK A01 T00490028  RH  087%=      5-min Rain = 0
KMD1 111219Z 25002KT 05/03 A2978 RMK A01 T00480029  RH  087%=      5-min Rain = 0
KMD1 111220Z 26002KT 05/03 A2978 RMK A01 T00470028  RH  088%=      5-min Rain = 0
KMD1 111221Z 27002KT 05/03 A2978 RMK A01 T00470029  RH  088%=      5-min Rain = 0
KMD1 111222Z 27001KT 05/03 A2978 RMK A01 T00460029  RH  088%=      5-min Rain = 0
KMD1 111223Z 28002KT 05/03 A2978 RMK A01 T00460029  RH  088%=      5-min Rain = 0
KMD1 111224Z 28002KT 05/03 A2978 RMK A01 T00460029  RH  089%=      5-min Rain = 0
KMD1 111225Z 27002KT 05/03 A2978 RMK A01 T00460030  RH  089%=      5-min Rain = 0
KMD1 111226Z 27002KT 05/03 A2978 RMK A01 T00460030  RH  089%=      5-min Rain = 0
KMD1 111227Z 27002KT 05/03 A2978 RMK A01 T00470031  RH  089%=      5-min Rain = 0
KMD1 111228Z 26002KT 05/03 A2978 RMK A01 T00470031  RH  089%=      5-min Rain = 0
KMD1 111229Z 26002KT 05/03 A2978 RMK A01 T00470031  RH  089%=      5-min Rain = 0
KMD1 111230Z 25003KT 05/03 A2978 RMK A01 T00470031  RH  089%=      5-min Rain = 0
KMD1 111231Z 26003KT 05/03 A2978 RMK A01 T00480032  RH  089%=      5-min Rain = 0
KMD1 111232Z 25002KT 05/03 A2978 RMK A01 T00480032  RH  089%=      5-min Rain = 0
KMD1 111233Z 26003KT 05/03 A2978 RMK A01 T00480032  RH  089%=      5-min Rain = 0
KMD1 111234Z 25002KT 05/03 A2978 RMK A01 T00480031  RH  089%=      5-min Rain = 0
KMD1 111235Z 25003KT 05/03 A2978 RMK A01 T00480031  RH  089%=      5-min Rain = 0
KMD1 111236Z 25002KT 05/03 A2978 RMK A01 T00480032  RH  089%=      5-min Rain = 0
KMD1 111237Z 25002KT 05/03 A2978 RMK A01 T00480031  RH  089%=      5-min Rain = 0
KMD1 111238Z 25002KT 05/03 A2978 RMK A01 T00480031  RH  089%=      5-min Rain = 0
KMD1 111239Z 25002KT 05/03 A2978 RMK A01 T00480031  RH  089%=      5-min Rain = 0
KMD1 111240Z 25002KT 05/03 A2978 RMK A01 T00480032  RH  089%=      5-min Rain = 0
KMD1 111241Z 26001KT 05/03 A2978 RMK A01 T00480031  RH  089%=      5-min Rain = 0
KMD1 111242Z 27001KT 05/03 A2978 RMK A01 T00480031  RH  089%=      5-min Rain = 0
KMD1 111243Z 28001KT 05/03 A2978 RMK A01 T00480031  RH  089%=      5-min Rain = 0
KMD1 111244Z 28002KT 05/03 A2978 RMK A01 T00480031  RH  089%=      5-min Rain = 0
KMD1 111245Z 28002KT 05/03 A2978 RMK A01 T00480031  RH  089%=      5-min Rain = 0
KMD1 111246Z 28001KT 05/03 A2978 RMK A01 T00490032  RH  089%=      5-min Rain = 0
KMD1 111247Z 30001KT 05/03 A2978 RMK A01 T00490031  RH  089%=      5-min Rain = 0
KMD1 111248Z 31002KT 05/03 A2978 RMK A01 T00490031  RH  088%=      5-min Rain = 0
KMD1 111249Z 29002KT 05/03 A2978 RMK A01 T00480030  RH  088%=      5-min Rain = 0
KMD1 111250Z 28001KT 05/03 A2978 RMK A01 T00480030  RH  088%=      5-min Rain = 0
KMD1 111251Z 27002KT 05/03 A2978 RMK A01 T00480030  RH  088%=      5-min Rain = 0
KMD1 111252Z 28002KT 05/03 A2978 RMK A01 T00480030  RH  088%=      5-min Rain = 0
KMD1 111253Z 29003KT 05/03 A2978 RMK A01 T00480030  RH  088%=      5-min Rain = 0
KMD1 111254Z 30003KT 05/03 A2978 RMK A01 T00490031  RH  088%=      5-min Rain = 0
KMD1 111255Z 30003KT 05/03 A2978 RMK A01 T00500032  RH  088%=      5-min Rain = 0
KMD1 111256Z 30003KT 05/03 A2978 RMK A01 T00510032  RH  088%=      5-min Rain = 0
KMD1 111257Z 30004KT 05/03 A2978 RMK A01 T00510032  RH  088%=      5-min Rain = 0
KMD1 111258Z 29004KT 05/03 A2978 RMK A01 T00520033  RH  087%=      5-min Rain = 0
KMD1 111259Z 29004KT 05/03 A2978 RMK A01 T00530033  RH  087%=      5-min Rain = 0
KMD1 111300Z 29004KT 05/03 A2978 RMK A01 T00530033  RH  087%=      5-min Rain = 0
KMD1 111301Z 28004KT 05/03 A2978 RMK A01 T00540033  RH  086%=      5-min Rain = 0
KMD1 111302Z 28004KT 05/03 A2979 RMK A01 T00540032  RH  086%=      5-min Rain = 0
KMD1 111303Z 28004KT 05/03 A2979 RMK A01 T00540032  RH  086%=      5-min Rain = 0
KMD1 111304Z 29005KT 05/03 A2979 RMK A01 T00540031  RH  085%=      5-min Rain = 0
KMD1 111305Z 29005KT 06/03 A2979 RMK A01 T00550031  RH  084%=      5-min Rain = 0
KMD1 111306Z 28005KT 06/03 A2979 RMK A01 T00550030  RH  084%=      5-min Rain = 0
KMD1 111307Z 28005KT 06/03 A2979 RMK A01 T00550029  RH  083%=      5-min Rain = 0
KMD1 111308Z 28004KT 06/03 A2979 RMK A01 T00550029  RH  083%=      5-min Rain = 0
KMD1 111309Z 28004KT 06/03 A2979 RMK A01 T00550028  RH  083%=      5-min Rain = 0
KMD1 111310Z 27004KT 06/03 A2979 RMK A01 T00550028  RH  083%=      5-min Rain = 0
KMD1 111311Z 27003KT 06/03 A2979 RMK A01 T00560029  RH  083%=      5-min Rain = 0
KMD1 111312Z 26002KT 06/03 A2979 RMK A01 T00560029  RH  083%=      5-min Rain = 0
KMD1 111313Z 27003KT 06/03 A2979 RMK A01 T00550028  RH  083%=      5-min Rain = 0
KMD1 111314Z 25002KT 05/03 A2979 RMK A01 T00540028  RH  083%=      5-min Rain = 0
KMD1 111315Z 24001KT 05/03 A2979 RMK A01 T00530027  RH  083%=      5-min Rain = 0
KMD1 111316Z 22001KT 05/03 A2979 RMK A01 T00510026  RH  084%=      5-min Rain = 0
KMD1 111317Z 19001KT 05/03 A2979 RMK A01 T00490026  RH  085%=      5-min Rain = 0
KMD1 111318Z 18001KT 05/03 A2979 RMK A01 T00470027  RH  086%=      5-min Rain = 0
KMD1 111319Z 20000KT 05/03 A2979 RMK A01 T00460027  RH  087%=      5-min Rain = 0
KMD1 111320Z 00000KT 05/03 A2979 RMK A01 T00460027  RH  088%=      5-min Rain = 0
KMD1 111321Z 26000KT 05/03 A2979 RMK A01 T00460028  RH  089%=      5-min Rain = 0
KMD1 111322Z 00000KT 05/03 A2979 RMK A01 T00460029  RH  089%=      5-min Rain = 0
KMD1 111323Z 00000KT 05/03 A2979 RMK A01 T00450028  RH  089%=      5-min Rain = 0
KMD1 111324Z 00000KT 05/03 A2979 RMK A01 T00450028  RH  089%=      5-min Rain = 0
KMD1 111325Z 00000KT 05/03 A2979 RMK A01 T00450028  RH  089%=      5-min Rain = 0
KMD1 111326Z 00000KT 05/03 A2979 RMK A01 T00450029  RH  089%=      5-min Rain = 0
KMD1 111327Z 28000KT 05/03 A2979 RMK A01 T00450028  RH  089%=      5-min Rain = 0
KMD1 111328Z 31000KT 05/03 A2979 RMK A01 T00450029  RH  089%=      5-min Rain = 0
KMD1 111329Z 31001KT 05/03 A2979 RMK A01 T00450029  RH  089%=      5-min Rain = 0
KMD1 111330Z 31001KT 05/03 A2979 RMK A01 T00460031  RH  090%=      5-min Rain = 0
KMD1 111331Z 32001KT 05/03 A2979 RMK A01 T00490034  RH  090%=      5-min Rain = 0
KMD1 111332Z 31001KT 05/04 A2979 RMK A01 T00510035  RH  090%=      5-min Rain = 0
KMD1 111333Z 31001KT 05/03 A2979 RMK A01 T00520034  RH  088%=      5-min Rain = 0
KMD1 111334Z 31000KT 05/03 A2979 RMK A01 T00520032  RH  087%=      5-min Rain = 0
KMD1 111335Z 31001KT 05/03 A2979 RMK A01 T00520032  RH  087%=      5-min Rain = 0
KMD1 111336Z 30002KT 05/03 A2979 RMK A01 T00520033  RH  087%=      5-min Rain = 0
KMD1 111337Z 28001KT 05/03 A2979 RMK A01 T00520032  RH  087%=      5-min Rain = 0
KMD1 111338Z 28001KT 05/03 A2979 RMK A01 T00520031  RH  086%=      5-min Rain = 0
KMD1 111339Z 28001KT 05/03 A2979 RMK A01 T00510030  RH  086%=      5-min Rain = 0
KMD1 111340Z 28001KT 05/03 A2979 RMK A01 T00510029  RH  086%=      5-min Rain = 0
KMD1 111341Z 28001KT 05/03 A2979 RMK A01 T00500029  RH  086%=      5-min Rain = 0
KMD1 111342Z 27001KT 05/03 A2979 RMK A01 T00500029  RH  086%=      5-min Rain = 0
KMD1 111343Z 25001KT 05/03 A2979 RMK A01 T00500030  RH  087%=      5-min Rain = 0
KMD1 111344Z 26001KT 05/03 A2979 RMK A01 T00500030  RH  087%=      5-min Rain = 0
KMD1 111345Z 26000KT 05/03 A2979 RMK A01 T00500031  RH  087%=      5-min Rain = 0
KMD1 111346Z 25000KT 05/03 A2979 RMK A01 T00500030  RH  087%=      5-min Rain = 0
KMD1 111347Z 26001KT 05/03 A2979 RMK A01 T00500032  RH  088%=      5-min Rain = 0
KMD1 111348Z 24000KT 05/03 A2979 RMK A01 T00520033  RH  088%=      5-min Rain = 0
KMD1 111349Z 21001KT 05/03 A2979 RMK A01 T00520032  RH  087%=      5-min Rain = 0
KMD1 111350Z 21000KT 05/03 A2979 RMK A01 T00520032  RH  087%=      5-min Rain = 0
KMD1 111351Z 19001KT 05/03 A2979 RMK A01 T00520032  RH  087%=      5-min Rain = 0
KMD1 111352Z 20000KT 05/03 A298 RMK A01 T00520032  RH  087%=      5-min Rain = 0
KMD1 111353Z 00000KT 05/03 A298 RMK A01 T00520032  RH  087%=      5-min Rain = 0
KMD1 111354Z 24000KT 05/03 A298 RMK A01 T00520033  RH  087%=      5-min Rain = 0
KMD1 111355Z 27001KT 05/03 A298 RMK A01 T00530033  RH  087%=      5-min Rain = 0
KMD1 111356Z 27000KT 05/03 A298 RMK A01 T00530033  RH  087%=      5-min Rain = 0
KMD1 111357Z 29001KT 05/03 A298 RMK A01 T00530031  RH  086%=      5-min Rain = 0
KMD1 111358Z 30001KT 05/03 A298 RMK A01 T00510028  RH  085%=      5-min Rain = 0
KMD1 111359Z 31001KT 05/03 A298 RMK A01 T00500028  RH  086%=      5-min Rain = 0
KMD1 111400Z 31001KT 05/03 A298 RMK A01 T00490029  RH  086%=      5-min Rain = 0
KMD1 111401Z 32001KT 05/03 A298 RMK A01 T00500030  RH  087%=      5-min Rain = 0
KMD1 111402Z 32001KT 05/03 A298 RMK A01 T00500031  RH  087%=      5-min Rain = 0
KMD1 111403Z 31001KT 05/03 A298 RMK A01 T00520033  RH  087%=      5-min Rain = 0
KMD1 111404Z 29001KT 05/03 A298 RMK A01 T00530033  RH  087%=      5-min Rain = 0
KMD1 111405Z 29001KT 05/03 A298 RMK A01 T00540034  RH  087%=      5-min Rain = 0
KMD1 111406Z 29002KT 06/03 A2981 RMK A01 T00550034  RH  087%=      5-min Rain = 0
KMD1 111407Z 29002KT 06/03 A2981 RMK A01 T00550034  RH  086%=      5-min Rain = 0
KMD1 111408Z 29002KT 06/04 A2981 RMK A01 T00560035  RH  086%=      5-min Rain = 0
KMD1 111409Z 30003KT 06/04 A2981 RMK A01 T00570035  RH  086%=      5-min Rain = 0
KMD1 111410Z 29003KT 06/04 A2981 RMK A01 T00580035  RH  085%=      5-min Rain = 0
KMD1 111411Z 29003KT 06/04 A2981 RMK A01 T00590035  RH  085%=      5-min Rain = 0
KMD1 111412Z 29003KT 06/04 A2981 RMK A01 T00590035  RH  084%=      5-min Rain = 0
KMD1 111413Z 29003KT 06/04 A2981 RMK A01 T00600035  RH  084%=      5-min Rain = 0
KMD1 111414Z 28003KT 06/04 A2981 RMK A01 T00600035  RH  084%=      5-min Rain = 0
KMD1 111415Z 28003KT 06/04 A2981 RMK A01 T00610035  RH  084%=      5-min Rain = 0
KMD1 111416Z 28002KT 06/04 A2981 RMK A01 T00620036  RH  083%=      5-min Rain = 0
KMD1 111417Z 27002KT 06/04 A2981 RMK A01 T00630036  RH  083%=      5-min Rain = 0
KMD1 111418Z 27002KT 06/04 A2981 RMK A01 T00640037  RH  083%=      5-min Rain = 0
KMD1 111419Z 27002KT 07/04 A2981 RMK A01 T00650037  RH  082%=      5-min Rain = 0
KMD1 111420Z 26003KT 07/04 A2981 RMK A01 T00660037  RH  081%=      5-min Rain = 0
KMD1 111421Z 26003KT 07/04 A2981 RMK A01 T00670037  RH  081%=      5-min Rain = 0
KMD1 111422Z 27003KT 07/04 A2981 RMK A01 T00680037  RH  081%=      5-min Rain = 0
KMD1 111423Z 27003KT 07/04 A2981 RMK A01 T00680037  RH  081%=      5-min Rain = 0
KMD1 111424Z 27003KT 07/04 A2981 RMK A01 T00680037  RH  080%=      5-min Rain = 0
KMD1 111425Z 28003KT 07/04 A2981 RMK A01 T00690037  RH  080%=      5-min Rain = 0
KMD1 111426Z 28003KT 07/04 A2982 RMK A01 T00700037  RH  079%=      5-min Rain = 0
KMD1 111427Z 28004KT 07/04 A2982 RMK A01 T00710037  RH  079%=      5-min Rain = 0
KMD1 111428Z 28004KT 07/04 A2982 RMK A01 T00730038  RH  079%=      5-min Rain = 0
KMD1 111429Z 27003KT 07/04 A2982 RMK A01 T00740040  RH  079%=      5-min Rain = 0
KMD1 111430Z 27003KT 07/04 A2982 RMK A01 T00740039  RH  079%=      5-min Rain = 0
KMD1 111431Z 27004KT 07/04 A2982 RMK A01 T00740039  RH  078%=      5-min Rain = 0
KMD1 111432Z 26004KT 07/04 A2982 RMK A01 T00740038  RH  078%=      5-min Rain = 0
KMD1 111433Z 26004KT 08/04 A2982 RMK A01 T00750038  RH  077%=      5-min Rain = 0
KMD1 111434Z 26004KT 08/04 A2982 RMK A01 T00750038  RH  077%=      5-min Rain = 0
KMD1 111435Z 26004KT 08/04 A2982 RMK A01 T00750039  RH  078%=      5-min Rain = 0
KMD1 111436Z 26005KT 08/04 A2982 RMK A01 T00760040  RH  078%=      5-min Rain = 0
KMD1 111437Z 25004KT 08/04 A2982 RMK A01 T00770041  RH  078%=      5-min Rain = 0
KMD1 111438Z 25005KT 08/04 A2982 RMK A01 T00780041  RH  077%=      5-min Rain = 0
KMD1 111439Z 25005KT 08/04 A2982 RMK A01 T00780041  RH  077%=      5-min Rain = 0
KMD1 111440Z 25004KT 08/04 A2982 RMK A01 T00780042  RH  078%=      5-min Rain = 0
KMD1 111441Z 25004KT 08/04 A2982 RMK A01 T00780042  RH  078%=      5-min Rain = 0
KMD1 111442Z 25005KT 08/04 A2982 RMK A01 T00790044  RH  079%=      5-min Rain = 0
KMD1 111443Z 25005KT 08/04 A2983 RMK A01 T00790044  RH  079%=      5-min Rain = 0
KMD1 111444Z 24005KT 08/05 A2983 RMK A01 T00790045  RH  079%=      5-min Rain = 0
KMD1 111445Z 24005KT 08/05 A2983 RMK A01 T00790046  RH  080%=      5-min Rain = 0
KMD1 111446Z 24005KT 08/05 A2983 RMK A01 T00790046  RH  080%=      5-min Rain = 0
KMD1 111447Z 24005KT 08/05 A2983 RMK A01 T00790047  RH  081%=      5-min Rain = 0
KMD1 111448Z 25004KT 08/05 A2983 RMK A01 T00800046  RH  079%=      5-min Rain = 0
KMD1 111449Z 25004KT 08/05 A2983 RMK A01 T00810045  RH  078%=      5-min Rain = 0
KMD1 111450Z 25005KT 08/04 A2983 RMK A01 T00820044  RH  077%=      5-min Rain = 0
KMD1 111451Z 25005KT 08/04 A2983 RMK A01 T00830044  RH  077%=      5-min Rain = 0
KMD1 111452Z 25005KT 08/04 A2983 RMK A01 T00840044  RH  076%=      5-min Rain = 0
KMD1 111453Z 25005KT 09/04 A2983 RMK A01 T00850044  RH  075%=      5-min Rain = 0
KMD1 111454Z 25005KT 09/05 A2983 RMK A01 T00860046  RH  076%=      5-min Rain = 0
KMD1 111455Z 25005KT 09/04 A2983 RMK A01 T00880044  RH  074%=      5-min Rain = 0
KMD1 111456Z 25006KT 09/05 A2983 RMK A01 T00890045  RH  074%=      5-min Rain = 0
KMD1 111457Z 26005KT 09/05 A2983 RMK A01 T00900045  RH  073%=      5-min Rain = 0
KMD1 111458Z 26005KT 09/05 A2983 RMK A01 T00910045  RH  073%=      5-min Rain = 0
KMD1 111459Z 25005KT 09/04 A2983 RMK A01 T00910044  RH  072%=      5-min Rain = 0
KMD1 111500Z 25006KT 09/05 A2983 RMK A01 T00920045  RH  072%=      5-min Rain = 0
KMD1 111501Z 25006KT 09/05 A2983 RMK A01 T00930046  RH  073%=      5-min Rain = 0
KMD1 111502Z 25006KT 10/05 A2983 RMK A01 T00950048  RH  072%=      5-min Rain = 0
KMD1 111503Z 25006KT 10/05 A2983 RMK A01 T00970047  RH  071%=      5-min Rain = 0
KMD1 111504Z 25006KT 10/05 A2983 RMK A01 T00990048  RH  071%=      5-min Rain = 0
KMD1 111505Z 25005KT 10/05 A2984 RMK A01 T01000048  RH  070%=      5-min Rain = 0
KMD1 111506Z 25005KT 10/05 A2984 RMK A01 T01020050  RH  070%=      5-min Rain = 0
KMD1 111507Z 25006KT 10/05 A2984 RMK A01 T01040050  RH  069%=      5-min Rain = 0
KMD1 111508Z 25005KT 11/05 A2984 RMK A01 T01050050  RH  069%=      5-min Rain = 0
KMD1 111509Z 25006KT 11/05 A2984 RMK A01 T01050050  RH  069%=      5-min Rain = 0
KMD1 111510Z 25006KT 11/05 A2984 RMK A01 T01050049  RH  068%=      5-min Rain = 0
KMD1 111511Z 25006KT 11/05 A2984 RMK A01 T01060049  RH  068%=      5-min Rain = 0
KMD1 111512Z 25007KT 11/05 A2984 RMK A01 T01060049  RH  068%=      5-min Rain = 0
KMD1 111513Z 26007KT 11/05 A2984 RMK A01 T01080049  RH  067%=      5-min Rain = 0
KMD1 111514Z 26006KT 11/05 A2984 RMK A01 T01080048  RH  066%=      5-min Rain = 0
KMD1 111515Z 26006KT 11/05 A2985 RMK A01 T01110048  RH  065%=      5-min Rain = 0
KMD1 111516Z 27006KT 11/05 A2985 RMK A01 T01130049  RH  065%=      5-min Rain = 0
KMD1 111517Z 27007KT 12/05 A2985 RMK A01 T01150047  RH  063%=      5-min Rain = 0
KMD1 111518Z 27008KT 12/05 A2985 RMK A01 T01180046  RH  061%=      5-min Rain = 0
KMD1 111519Z 28009KT 12/05 A2985 RMK A01 T01220046  RH  060%=      5-min Rain = 0
KMD1 111520Z 27010KT 13/04 A2985 RMK A01 T01250043  RH  057%=      5-min Rain = 0
KMD1 111521Z 27010KT 13/04 A2985 RMK A01 T01270043  RH  056%=      5-min Rain = 0
KMD1 111522Z 28008KT 13/04 A2985 RMK A01 T01290044  RH  056%=      5-min Rain = 0
KMD1 111523Z 28010KT 13/04 A2985 RMK A01 T01300043  RH  056%=      5-min Rain = 0
KMD1 111524Z 27010KT 13/04 A2985 RMK A01 T01310041  RH  054%=      5-min Rain = 0
KMD1 111525Z 28009KT 13/04 A2985 RMK A01 T01320041  RH  054%=      5-min Rain = 0
KMD1 111526Z 28008KT 13/04 A2985 RMK A01 T01330043  RH  055%=      5-min Rain = 0
KMD1 111527Z 28008KT 13/04 A2985 RMK A01 T01340043  RH  054%=      5-min Rain = 0
KMD1 111528Z 28008KT 14/05 A2985 RMK A01 T01360045  RH  054%=      5-min Rain = 0
KMD1 111529Z 28007KT 14/05 A2985 RMK A01 T01370046  RH  054%=      5-min Rain = 0
KMD1 111530Z 27008KT 14/04 A2985 RMK A01 T01390044  RH  053%=      5-min Rain = 0
KMD1 111531Z 28007KT 14/05 A2985 RMK A01 T01410046  RH  053%=      5-min Rain = 0
KMD1 111532Z 29009KT 14/05 A2986 RMK A01 T01430045  RH  052%=      5-min Rain = 0
KMD1 111533Z 28009KT 14/05 A2985 RMK A01 T01440045  RH  051%=      5-min Rain = 0
KMD1 111534Z 28009KT 14/04 A2985 RMK A01 T01440044  RH  051%=      5-min Rain = 0
KMD1 111535Z 28008KT 14/04 A2985 RMK A01 T01440042  RH  050%=      5-min Rain = 0
KMD1 111536Z 29007KT 14/04 A2985 RMK A01 T01420043  RH  051%=      5-min Rain = 0
KMD1 111537Z 28010KT 14/04 A2986 RMK A01 T01420043  RH  051%=      5-min Rain = 0
KMD1 111538Z 28011KT 14/04 A2986 RMK A01 T01420041  RH  051%=      5-min Rain = 0
KMD1 111539Z 29012KT 14/04 A2986 RMK A01 T01410040  RH  050%=      5-min Rain = 0
KMD1 111540Z 29013KT 14/04 A2986 RMK A01 T01410039  RH  050%=      5-min Rain = 0
KMD1 111541Z 29012KT 14/04 A2986 RMK A01 T01410038  RH  050%=      5-min Rain = 0
KMD1 111542Z 29010KT 14/04 A2986 RMK A01 T01410040  RH  051%=      5-min Rain = 0
KMD1 111543Z 29011KT 14/04 A2986 RMK A01 T01410039  RH  050%=      5-min Rain = 0
KMD1 111544Z 30011KT 14/04 A2986 RMK A01 T01410039  RH  050%=      5-min Rain = 0
KMD1 111545Z 29009KT 14/04 A2986 RMK A01 T01410039  RH  050%=      5-min Rain = 0
KMD1 111546Z 31009KT 14/04 A2986 RMK A01 T01410039  RH  050%=      5-min Rain = 0
KMD1 111547Z 29008KT 14/04 A2986 RMK A01 T01420039  RH  050%=      5-min Rain = 0
KMD1 111548Z 30011KT 14/04 A2986 RMK A01 T01430041  RH  050%=      5-min Rain = 0
KMD1 111549Z 30011KT 15/04 A2986 RMK A01 T01450040  RH  049%=      5-min Rain = 0
KMD1 111550Z 31010KT 15/04 A2986 RMK A01 T01460040  RH  049%=      5-min Rain = 0
KMD1 111551Z 31011KT 15/04 A2986 RMK A01 T01460038  RH  048%=      5-min Rain = 0
KMD1 111552Z 32012KT 15/04 A2986 RMK A01 T01470039  RH  048%=      5-min Rain = 0
KMD1 111553Z 32012KT 15/04 A2986 RMK A01 T01480038  RH  048%=      5-min Rain = 0
KMD1 111554Z 32011KT 15/04 A2986 RMK A01 T01490037  RH  047%=      5-min Rain = 0
KMD1 111555Z 32012KT 15/04 A2986 RMK A01 T01500039  RH  047%=      5-min Rain = 0
KMD1 111556Z 33011G17KT 15/04 A2986 RMK A01 T01500035  RH  046%=      5-min Rain = 0
KMD1 111557Z 32010KT 15/04 A2986 RMK A01 T01500035  RH  046%=      5-min Rain = 0
KMD1 111558Z 33011KT 15/04 A2987 RMK A01 T01500036  RH  046%=      5-min Rain = 0
KMD1 111559Z 34014KT 15/03 A2987 RMK A01 T01500033  RH  045%=      5-min Rain = 0
KMD1 111600Z 33014KT 15/03 A2987 RMK A01 T01490033  RH  046%=      5-min Rain = 0
KMD1 111601Z 33015KT 15/03 A2987 RMK A01 T01500033  RH  046%=      5-min Rain = 0
KMD1 111602Z 33015KT 15/03 A2987 RMK A01 T01510033  RH  045%=      5-min Rain = 0
KMD1 111603Z 32012KT 15/04 A2987 RMK A01 T01520035  RH  045%=      5-min Rain = 0
KMD1 111604Z 33010KT 15/04 A2987 RMK A01 T01530035  RH  045%=      5-min Rain = 0
KMD1 111605Z 34013KT 15/03 A2987 RMK A01 T01530034  RH  045%=      5-min Rain = 0
KMD1 111606Z 33012KT 15/03 A2987 RMK A01 T01530034  RH  045%=      5-min Rain = 0
KMD1 111607Z 32013KT 15/03 A2988 RMK A01 T01530034  RH  045%=      5-min Rain = 0
KMD1 111608Z 32014KT 15/03 A2988 RMK A01 T01530034  RH  045%=      5-min Rain = 0
KMD1 111609Z 35012KT 15/04 A2988 RMK A01 T01530035  RH  045%=      5-min Rain = 0
KMD1 111610Z 34016G24KT 15/04 A2988 RMK A01 T01530035  RH  045%=      5-min Rain = 0
KMD1 111611Z 35020G25KT 15/03 A2988 RMK A01 T01500033  RH  046%=      5-min Rain = 0
KMD1 111612Z 34018G23KT 15/04 A2988 RMK A01 T01470035  RH  047%=      5-min Rain = 0
KMD1 111613Z 34018G24KT 15/04 A2989 RMK A01 T01460035  RH  047%=      5-min Rain = 0
KMD1 111614Z 33015KT 15/04 A2989 RMK A01 T01450035  RH  048%=      5-min Rain = 0
KMD1 111615Z 34015KT 15/04 A2989 RMK A01 T01450035  RH  048%=      5-min Rain = 0
KMD1 111616Z 34017KT 15/04 A2989 RMK A01 T01460036  RH  047%=      5-min Rain = 0
KMD1 111617Z 34019KT 15/04 A299 RMK A01 T01470035  RH  047%=      5-min Rain = 0
KMD1 111618Z 33016G22KT 15/04 A2989 RMK A01 T01470036  RH  047%=      5-min Rain = 0
KMD1 111619Z 33017G23KT 15/04 A299 RMK A01 T01470036  RH  047%=      5-min Rain = 0
KMD1 111620Z 34012KT 15/04 A299 RMK A01 T01470037  RH  047%=      5-min Rain = 0
KMD1 111621Z 33022G29KT 15/04 A299 RMK A01 T01490036  RH  047%=      5-min Rain = 0
KMD1 111622Z 33019G25KT 15/03 A299 RMK A01 T01460034  RH  047%=      5-min Rain = 0
KMD1 111623Z 34015KT 14/03 A299 RMK A01 T01430034  RH  048%=      5-min Rain = 0
KMD1 111624Z 33013KT 14/04 A2991 RMK A01 T01420035  RH  049%=      5-min Rain = 0
KMD1 111625Z 33014KT 14/04 A2991 RMK A01 T01430037  RH  049%=      5-min Rain = 0
KMD1 111626Z 33017KT 15/04 A2991 RMK A01 T01450036  RH  048%=      5-min Rain = 0
KMD1 111627Z 33016G23KT 14/04 A2991 RMK A01 T01440035  RH  048%=      5-min Rain = 0
KMD1 111628Z 33016G23KT 14/04 A2991 RMK A01 T01430036  RH  049%=      5-min Rain = 0
KMD1 111629Z 33021KT 14/04 A2991 RMK A01 T01430035  RH  048%=      5-min Rain = 0
KMD1 111630Z 33017G22KT 14/04 A2991 RMK A01 T01420035  RH  049%=      5-min Rain = 0
KMD1 111631Z 34016KT 14/04 A2992 RMK A01 T01420036  RH  049%=      5-min Rain = 0
KMD1 111632Z 33016KT 14/04 A2992 RMK A01 T01430036  RH  049%=      5-min Rain = 0
KMD1 111633Z 33019G24KT 14/04 A2992 RMK A01 T01440035  RH  048%=      5-min Rain = 0
KMD1 111634Z 33016KT 14/04 A2992 RMK A01 T01420035  RH  048%=      5-min Rain = 0
KMD1 111635Z 34018G23KT 14/04 A2992 RMK A01 T01420035  RH  049%=      5-min Rain = 0
KMD1 111636Z 35020KT 14/04 A2992 RMK A01 T01420035  RH  049%=      5-min Rain = 0
KMD1 111637Z 34016G21KT 14/04 A2992 RMK A01 T01410035  RH  049%=      5-min Rain = 0
KMD1 111638Z 35016KT 14/04 A2992 RMK A01 T01400036  RH  049%=      5-min Rain = 0
KMD1 111639Z 34016KT 14/04 A2992 RMK A01 T01430038  RH  049%=      5-min Rain = 0
KMD1 111640Z 34018KT 15/04 A2992 RMK A01 T01460038  RH  048%=      5-min Rain = 0
KMD1 111641Z 35020G25KT 15/04 A2992 RMK A01 T01450036  RH  048%=      5-min Rain = 0
KMD1 111642Z 34018G24KT 14/03 A2993 RMK A01 T01410034  RH  048%=      5-min Rain = 0
KMD1 111643Z 33019G27KT 14/03 A2993 RMK A01 T01380033  RH  049%=      5-min Rain = 0
KMD1 111644Z 33022G27KT 14/03 A2993 RMK A01 T01350032  RH  050%=      5-min Rain = 0
KMD1 111645Z 33022G27KT 13/03 A2993 RMK A01 T01330032  RH  050%=      5-min Rain = 0
KMD1 111646Z 34022G29KT 13/03 A2993 RMK A01 T01310032  RH  051%=      5-min Rain = 0
KMD1 111647Z 34025KT 13/03 A2993 RMK A01 T01310031  RH  051%=      5-min Rain = 0
KMD1 111648Z 34020G26KT 13/03 A2994 RMK A01 T01300031  RH  051%=      5-min Rain = 0
KMD1 111649Z 34019G24KT 13/03 A2994 RMK A01 T01310031  RH  051%=      5-min Rain = 0
KMD1 111650Z 34021KT 13/03 A2994 RMK A01 T01310030  RH  050%=      5-min Rain = 0
KMD1 111651Z 34022G27KT 13/03 A2994 RMK A01 T01290028  RH  050%=      5-min Rain = 0
KMD1 111652Z 35019KT 13/03 A2994 RMK A01 T01270027  RH  051%=      5-min Rain = 0
KMD1 111653Z 34016KT 13/03 A2994 RMK A01 T01260027  RH  051%=      5-min Rain = 0
KMD1 111654Z 34017KT 13/03 A2995 RMK A01 T01250026  RH  051%=      5-min Rain = 0
KMD1 111655Z 35021G28KT 12/03 A2995 RMK A01 T01240025  RH  051%=      5-min Rain = 0
KMD1 111656Z 34021KT 12/02 A2995 RMK A01 T01200022  RH  051%=      5-min Rain = 0
KMD1 111657Z 34018G26KT 12/02 A2995 RMK A01 T01190023  RH  052%=      5-min Rain = 0
KMD1 111658Z 34017KT 12/02 A2995 RMK A01 T01190022  RH  051%=      5-min Rain = 0
KMD1 111659Z 34016KT 12/02 A2995 RMK A01 T01180020  RH  051%=      5-min Rain = 0
KMD1 111700Z 33015G24KT 12/02 A2995 RMK A01 T01170020  RH  051%=      5-min Rain = 0
KMD1 111701Z 33015KT 12/02 A2995 RMK A01 T01170019  RH  051%=      5-min Rain = 0
KMD1 111702Z 32018G24KT 12/02 A2995 RMK A01 T01160019  RH  051%=      5-min Rain = 0
KMD1 111703Z 33017G22KT 12/02 A2995 RMK A01 T01150017  RH  051%=      5-min Rain = 0
KMD1 111704Z 32017KT 11/02 A2995 RMK A01 T01140018  RH  051%=      5-min Rain = 0
KMD1 111705Z 33015G20KT 12/02 A2996 RMK A01 T01150018  RH  051%=      5-min Rain = 0
KMD1 111706Z 33014KT 12/02 A2996 RMK A01 T01160019  RH  051%=      5-min Rain = 0
KMD1 111707Z 33015KT 12/02 A2996 RMK A01 T01170017  RH  051%=      5-min Rain = 0
KMD1 111708Z 33017KT 12/02 A2996 RMK A01 T01160015  RH  050%=      5-min Rain = 0
KMD1 111709Z 33019G24KT 11/01 A2996 RMK A01 T01130012  RH  050%=      5-min Rain = 0
KMD1 111710Z 32018G25KT 11/01 A2996 RMK A01 T01090010  RH  050%=      5-min Rain = 0
KMD1 111711Z 33018G25KT 11/01 A2996 RMK A01 T01080011  RH  051%=      5-min Rain = 0
KMD1 111712Z 33014KT 11/01 A2997 RMK A01 T01080012  RH  052%=      5-min Rain = 0
KMD1 111713Z 34014G23KT 11/01 A2997 RMK A01 T01090012  RH  051%=      5-min Rain = 0
KMD1 111714Z 33012G17KT 11/01 A2997 RMK A01 T01100012  RH  051%=      5-min Rain = 0
KMD1 111715Z 33013G20KT 11/01 A2997 RMK A01 T01110013  RH  051%=      5-min Rain = 0
KMD1 111716Z 33014G20KT 11/01 A2997 RMK A01 T01110011  RH  050%=      5-min Rain = 0
KMD1 111717Z 33016KT 11/01 A2997 RMK A01 T01090009  RH  050%=      5-min Rain = 0
KMD1 111718Z 34015G21KT 11/01 A2997 RMK A01 T01080010  RH  051%=      5-min Rain = 0
KMD1 111719Z 34020G25KT 11/01 A2997 RMK A01 T01090010  RH  050%=      5-min Rain = 0
KMD1 111720Z 34022G27KT 11/01 A2997 RMK A01 T01050005  RH  050%=      5-min Rain = 0
KMD1 111721Z 34019G26KT 10/00 A2997 RMK A01 T01010004  RH  051%=      5-min Rain = 0
KMD1 111722Z 34023KT 10/01 A2998 RMK A01 T01010006  RH  052%=      5-min Rain = 0
KMD1 111723Z 33018G24KT 10/01 A2998 RMK A01 T01000005  RH  052%=      5-min Rain = 0
KMD1 111724Z 34019KT 10/01 A2998 RMK A01 T00990005  RH  052%=      5-min Rain = 0
KMD1 111725Z 34020G25KT 10/00 A2998 RMK A01 T00980004  RH  052%=      5-min Rain = 0
KMD1 111726Z 33021KT 10/00 A2998 RMK A01 T00980004  RH  052%=      5-min Rain = 0
KMD1 111727Z 33020G25KT 10/01 A2998 RMK A01 T00980005  RH  052%=      5-min Rain = 0
KMD1 111728Z 34020G26KT 10/01 A2998 RMK A01 T00980005  RH  052%=      5-min Rain = 0
KMD1 111729Z 34022G27KT 10/00 A2998 RMK A01 T00980004  RH  052%=      5-min Rain = 0
KMD1 111730Z 34018KT 10/00 A2998 RMK A01 T00980004  RH  052%=      5-min Rain = 0
KMD1 111731Z 35018KT 10/01 A2998 RMK A01 T00990005  RH  052%=      5-min Rain = 0
KMD1 111732Z 35018KT 10/01 A2998 RMK A01 T00990005  RH  052%=      5-min Rain = 0
KMD1 111733Z 34019G28KT 10/01 A2998 RMK A01 T00990005  RH  052%=      5-min Rain = 0
KMD1 111734Z 34017G23KT 10/01 A2998 RMK A01 T00990005  RH  052%=      5-min Rain = 0
KMD1 111735Z 33021G26KT 10/00 A2998 RMK A01 T00990004  RH  052%=      5-min Rain = 0
KMD1 111736Z 33023G30KT 10/00 A2998 RMK A01 T00970004  RH  052%=      5-min Rain = 0
KMD1 111737Z 34020KT 10/00 A2999 RMK A01 T00960004  RH  053%=      5-min Rain = 0
KMD1 111738Z 33020G25KT 10/00 A2998 RMK A01 T00960004  RH  053%=      5-min Rain = 0
KMD1 111739Z 34018G24KT 10/00 A2999 RMK A01 T00960004  RH  053%=      5-min Rain = 0
KMD1 111740Z 33017G23KT 10/01 A2998 RMK A01 T00960005  RH  053%=      5-min Rain = 0
KMD1 111741Z 33018G23KT 10/01 A2999 RMK A01 T00970005  RH  053%=      5-min Rain = 0
KMD1 111742Z 34016KT 10/01 A2999 RMK A01 T00970005  RH  053%=      5-min Rain = 0
KMD1 111743Z 34015G20KT 10/01 A2999 RMK A01 T00970006  RH  053%=      5-min Rain = 0
KMD1 111744Z 33017G25KT 10/01 A2999 RMK A01 T00980006  RH  053%=      5-min Rain = 0
KMD1 111745Z 32021G30KT 10/01 A2999 RMK A01 T00980006  RH  053%=      5-min Rain = 0
KMD1 111746Z 33016KT 10/01 A2999 RMK A01 T00970007  RH  053%=      5-min Rain = 0
KMD1 111747Z 33019G24KT 10/01 A2999 RMK A01 T00970007  RH  054%=      5-min Rain = 0
KMD1 111748Z 33016G22KT 10/01 A2999 RMK A01 T00960008  RH  054%=      5-min Rain = 0
KMD1 111749Z 33014G19KT 10/01 A2999 RMK A01 T00960009  RH  054%=      5-min Rain = 0
KMD1 111750Z 34014G19KT 10/01 A2999 RMK A01 T00970010  RH  055%=      5-min Rain = 0
KMD1 111751Z 33016KT 10/01 A2999 RMK A01 T00980009  RH  054%=      5-min Rain = 0
KMD1 111752Z 33015KT 10/01 A2999 RMK A01 T00990008  RH  053%=      5-min Rain = 0
KMD1 111753Z 32017G24KT 10/01 A2999 RMK A01 T00990009  RH  053%=      5-min Rain = 0
KMD1 111754Z 32019G24KT 10/01 A2999 RMK A01 T01000008  RH  053%=      5-min Rain = 0
KMD1 111755Z 32019KT 10/01 A2999 RMK A01 T00990007  RH  053%=      5-min Rain = 0
KMD1 111756Z 32020G25KT 10/01 A2999 RMK A01 T00970007  RH  053%=      5-min Rain = 0
KMD1 111757Z 32019KT 10/01 A2999 RMK A01 T00970007  RH  054%=      5-min Rain = 0
KMD1 111758Z 32018G23KT 10/01 A2999 RMK A01 T00970008  RH  054%=      5-min Rain = 0
KMD1 111759Z 32018G25KT 10/01 A30 RMK A01 T00970008  RH  054%=      5-min Rain = 0
KMD1 111800Z 32018KT 10/01 A30 RMK A01 T00970008  RH  054%=      5-min Rain = 0
KMD1 111801Z 32016G22KT 10/01 A30 RMK A01 T00970008  RH  054%=      5-min Rain = 0
KMD1 111802Z 32014KT 10/01 A30 RMK A01 T00970009  RH  054%=      5-min Rain = 0
KMD1 111803Z 32018G24KT 10/01 A30 RMK A01 T00980009  RH  054%=      5-min Rain = 0
KMD1 111804Z 33015KT 10/01 A30 RMK A01 T00970009  RH  054%=      5-min Rain = 0
KMD1 111805Z 32019G24KT 10/01 A30 RMK A01 T00960009  RH  055%=      5-min Rain = 0
KMD1 111806Z 34025G30KT 09/01 A30 RMK A01 T00910008  RH  056%=      5-min Rain = 0
KMD1 111807Z 32021G26KT 08/01 A3001 RMK A01 T00840007  RH  058%=      5-min Rain = 0
KMD1 111808Z 33024KT 08/01 A3001 RMK A01 T00800007  RH  060%=      5-min Rain = 0
KMD1 111809Z 32022G29KT 08/01 A3001 RMK A01 T00770007  RH  061%=      5-min Rain = 0
KMD1 111810Z 32023G28KT 08/01 A3001 RMK A01 T00750008  RH  062%=      5-min Rain = 0
KMD1 111811Z 32021KT 07/01 A3001 RMK A01 T00740009  RH  063%=      5-min Rain = 0
KMD1 111812Z 33019G24KT 07/01 A3001 RMK A01 T00740010  RH  064%=      5-min Rain = 0
KMD1 111813Z 33020G27KT 07/01 A3002 RMK A01 T00720009  RH  064%=      5-min Rain = 0
KMD1 111814Z 32018G25KT 07/01 A3002 RMK A01 T00700009  RH  065%=      5-min Rain = 0
KMD1 111815Z 33021G29KT 07/01 A3002 RMK A01 T00690009  RH  066%=      5-min Rain = 0
KMD1 111816Z 33020KT 07/01 A3002 RMK A01 T00670008  RH  066%=      5-min Rain = 0
KMD1 111817Z 33024G30KT 07/01 A3002 RMK A01 T00660009  RH  067%=      5-min Rain = 0
KMD1 111818Z 33025KT 06/01 A3002 RMK A01 T00640008  RH  067%=      5-min Rain = 0
KMD1 111819Z 32020G27KT 06/01 A3002 RMK A01 T00630008  RH  068%=      5-min Rain = 0
KMD1 111820Z 32020G25KT 06/01 A3002 RMK A01 T00620010  RH  069%=      5-min Rain = 0
KMD1 111821Z 33018G24KT 06/01 A3002 RMK A01 T00620011  RH  070%=      5-min Rain = 0
KMD1 111822Z 32024KT 06/01 A3002 RMK A01 T00610011  RH  070%=      5-min Rain = 0
KMD1 111823Z 33021KT 06/01 A3003 RMK A01 T00600011  RH  070%=      5-min Rain = 0
KMD1 111824Z 32018KT 06/01 A3003 RMK A01 T00600010  RH  071%=      5-min Rain = 0
KMD1 111825Z 32017G22KT 06/01 A3003 RMK A01 T00600011  RH  071%=      5-min Rain = 0
KMD1 111826Z 32015KT 06/01 A3003 RMK A01 T00610011  RH  070%=      5-min Rain = 0
KMD1 111827Z 32016G21KT 06/01 A3003 RMK A01 T00620011  RH  070%=      5-min Rain = 0
KMD1 111828Z 32015KT 06/01 A3003 RMK A01 T00620011  RH  069%=      5-min Rain = 0
KMD1 111829Z 34017KT 06/01 A3003 RMK A01 T00630011  RH  069%=      5-min Rain = 0
KMD1 111830Z 33016G22KT 06/01 A3003 RMK A01 T00620011  RH  070%=      5-min Rain = 0
KMD1 111831Z 32015G20KT 06/01 A3003 RMK A01 T00610013  RH  071%=      5-min Rain = 0
KMD1 111832Z 33013KT 06/02 A3003 RMK A01 T00600016  RH  073%=      5-min Rain = 0
KMD1 111833Z 31017G23KT 06/02 A3003 RMK A01 T00600016  RH  073%=      5-min Rain = 0
KMD1 111834Z 31014G19KT 06/01 A3003 RMK A01 T00590014  RH  073%=      5-min Rain = 0
KMD1 111835Z 31017G23KT 06/01 A3003 RMK A01 T00590014  RH  073%=      5-min Rain = 0
KMD1 111836Z 32016KT 06/02 A3004 RMK A01 T00590015  RH  073%=      5-min Rain = 0
KMD1 111837Z 31019KT 06/02 A3004 RMK A01 T00590015  RH  073%=      5-min Rain = 0
KMD1 111838Z 31017KT 06/01 A3004 RMK A01 T00580013  RH  073%=      5-min Rain = 0
KMD1 111839Z 31014KT 06/01 A3004 RMK A01 T00580013  RH  073%=      5-min Rain = 0
KMD1 111840Z 32015KT 06/01 A3004 RMK A01 T00570013  RH  073%=      5-min Rain = 0
KMD1 111841Z 32015G22KT 06/01 A3004 RMK A01 T00570013  RH  073%=      5-min Rain = 0
KMD1 111842Z 31018G23KT 06/01 A3004 RMK A01 T00580013  RH  073%=      5-min Rain = 0
KMD1 111843Z 33017G22KT 06/01 A3004 RMK A01 T00580011  RH  072%=      5-min Rain = 0
KMD1 111844Z 32016G25KT 06/01 A3004 RMK A01 T00570010  RH  072%=      5-min Rain = 0
KMD1 111845Z 32019KT 06/01 A3004 RMK A01 T00570010  RH  071%=      5-min Rain = 0
KMD1 111846Z 33016KT 06/01 A3004 RMK A01 T00570009  RH  071%=      5-min Rain = 0
KMD1 111847Z 32013KT 06/01 A3004 RMK A01 T00560009  RH  072%=      5-min Rain = 0
KMD1 111848Z 32011KT 06/01 A3004 RMK A01 T00570010  RH  072%=      5-min Rain = 0
KMD1 111849Z 33011G17KT 06/01 A3004 RMK A01 T00590012  RH  072%=      5-min Rain = 0
KMD1 111850Z 32017G23KT 06/01 A3004 RMK A01 T00610011  RH  071%=      5-min Rain = 0
KMD1 111851Z 32017KT 06/01 A3004 RMK A01 T00590010  RH  071%=      5-min Rain = 0
KMD1 111852Z 33016G22KT 06/01 A3004 RMK A01 T00590011  RH  071%=      5-min Rain = 0
KMD1 111853Z 34018G25KT 06/01 A3004 RMK A01 T00590010  RH  071%=      5-min Rain = 0
KMD1 111854Z 33018KT 06/01 A3004 RMK A01 T00580010  RH  071%=      5-min Rain = 0
KMD1 111855Z 32015KT 06/01 A3004 RMK A01 T00570009  RH  071%=      5-min Rain = 0
KMD1 111856Z 33015G21KT 06/01 A3004 RMK A01 T00570010  RH  072%=      5-min Rain = 0
KMD1 111857Z 34013G19KT 06/01 A3004 RMK A01 T00580009  RH  071%=      5-min Rain = 0
KMD1 111858Z 34016G25KT 06/01 A3004 RMK A01 T00580008  RH  070%=      5-min Rain = 0
KMD1 111859Z 36023KT 06/01 A3004 RMK A01 T00580005  RH  068%=      5-min Rain = 0
KMD1 111900Z 34019KT 06/00 A3004 RMK A01 T00580002  RH  067%=      5-min Rain = 0
KMD1 111901Z 34017KT 06/00 A3004 RMK A01 T00580003  RH  068%=      5-min Rain = 0
KMD1 111902Z 34015G21KT 06/01 A3004 RMK A01 T00600005  RH  068%=      5-min Rain = 0
KMD1 111903Z 35018KT 06/00 A3004 RMK A01 T00620002  RH  066%=      5-min Rain = 0
KMD1 111904Z 33014G21KT 06/00 A3004 RMK A01 T00610001  RH  065%=      5-min Rain = 0
KMD1 111905Z 33015G21KT 06/M00 A3004 RMK A01 T00611001  RH  064%=      5-min Rain = 0
KMD1 111906Z 33016KT 06/M00 A3004 RMK A01 T00611001  RH  065%=      5-min Rain = 0
KMD1 111907Z 34011KT 06/M00 A3004 RMK A01 T00611001  RH  064%=      5-min Rain = 0
KMD1 111908Z 33014KT 06/M00 A3004 RMK A01 T00621002  RH  064%=      5-min Rain = 0
KMD1 111909Z 33016KT 06/M00 A3004 RMK A01 T00621004  RH  063%=      5-min Rain = 0
KMD1 111910Z 33016G21KT 06/M01 A3004 RMK A01 T00611006  RH  062%=      5-min Rain = 0
KMD1 111911Z 33012G17KT 06/M00 A3004 RMK A01 T00621004  RH  063%=      5-min Rain = 0
KMD1 111912Z 33015KT 06/M01 A3004 RMK A01 T00631005  RH  061%=      5-min Rain = 0
KMD1 111913Z 35011KT 06/M01 A3004 RMK A01 T00631005  RH  062%=      5-min Rain = 0
KMD1 111914Z 33012KT 06/M01 A3004 RMK A01 T00631006  RH  061%=      5-min Rain = 0
KMD1 111915Z 33014KT 06/M01 A3004 RMK A01 T00631006  RH  061%=      5-min Rain = 0
KMD1 111916Z 34014KT 06/M01 A3004 RMK A01 T00621007  RH  061%=      5-min Rain = 0
KMD1 111917Z 33015KT 06/M01 A3004 RMK A01 T00611008  RH  061%=      5-min Rain = 0
KMD1 111918Z 34015G20KT 06/M01 A3003 RMK A01 T00611007  RH  062%=      5-min Rain = 0
KMD1 111919Z 33013KT 06/M01 A3004 RMK A01 T00601007  RH  062%=      5-min Rain = 0
KMD1 111920Z 34012KT 06/M01 A3004 RMK A01 T00601006  RH  062%=      5-min Rain = 0
KMD1 111921Z 34016KT 06/M01 A3004 RMK A01 T00611006  RH  062%=      5-min Rain = 0
KMD1 111922Z 34017KT 06/M01 A3003 RMK A01 T00611009  RH  061%=      5-min Rain = 0
KMD1 111923Z 34016KT 06/M01 A3004 RMK A01 T00611009  RH  061%=      5-min Rain = 0
KMD1 111924Z 34018KT 06/M01 A3004 RMK A01 T00611009  RH  061%=      5-min Rain = 0
KMD1 111925Z 34016KT 06/M01 A3004 RMK A01 T00611009  RH  061%=      5-min Rain = 0
KMD1 111926Z 33013G18KT 06/M01 A3004 RMK A01 T00611009  RH  061%=      5-min Rain = 0
KMD1 111927Z 33011KT 06/M01 A3004 RMK A01 T00631008  RH  061%=      5-min Rain = 0
KMD1 111928Z 32013G22KT 06/M01 A3004 RMK A01 T00641007  RH  060%=      5-min Rain = 0
KMD1 111929Z 31017KT 07/M01 A3003 RMK A01 T00651009  RH  059%=      5-min Rain = 0
KMD1 111930Z 33017KT 06/M01 A3004 RMK A01 T00641010  RH  059%=      5-min Rain = 0
KMD1 111931Z 33016G22KT 06/M01 A3004 RMK A01 T00631012  RH  059%=      5-min Rain = 0
KMD1 111932Z 32017G23KT 06/M01 A3004 RMK A01 T00611013  RH  059%=      5-min Rain = 0
KMD1 111933Z 33012G17KT 06/M01 A3004 RMK A01 T00611013  RH  059%=      5-min Rain = 0
KMD1 111934Z 33013KT 06/M01 A3004 RMK A01 T00611013  RH  059%=      5-min Rain = 0
KMD1 111935Z 33014KT 06/M01 A3004 RMK A01 T00611013  RH  059%=      5-min Rain = 0
KMD1 111936Z 32018KT 06/M01 A3004 RMK A01 T00611013  RH  059%=      5-min Rain = 0
KMD1 111937Z 32018KT 06/M01 A3004 RMK A01 T00601014  RH  059%=      5-min Rain = 0
KMD1 111938Z 32019G24KT 06/M01 A3004 RMK A01 T00591014  RH  059%=      5-min Rain = 0
KMD1 111939Z 32018KT 06/M01 A3004 RMK A01 T00591014  RH  060%=      5-min Rain = 0
KMD1 111940Z 32016KT 06/M01 A3004 RMK A01 T00591014  RH  059%=      5-min Rain = 0
KMD1 111941Z 32014KT 06/M01 A3004 RMK A01 T00591013  RH  060%=      5-min Rain = 0
KMD1 111942Z 32014KT 06/M01 A3004 RMK A01 T00591013  RH  060%=      5-min Rain = 0
KMD1 111943Z 32014KT 06/M01 A3004 RMK A01 T00611012  RH  059%=      5-min Rain = 0
KMD1 111944Z 32012KT 06/M01 A3004 RMK A01 T00611012  RH  059%=      5-min Rain = 0
KMD1 111945Z 32014KT 06/M01 A3004 RMK A01 T00621013  RH  059%=      5-min Rain = 0
KMD1 111946Z 33013KT 06/M01 A3004 RMK A01 T00621013  RH  059%=      5-min Rain = 0
KMD1 111947Z 33012KT 06/M01 A3004 RMK A01 T00631012  RH  059%=      5-min Rain = 0
KMD1 111948Z 32016KT 06/M01 A3004 RMK A01 T00641012  RH  058%=      5-min Rain = 0
KMD1 111949Z 32016KT 06/M01 A3004 RMK A01 T00641013  RH  058%=      5-min Rain = 0
KMD1 111950Z 32013KT 06/M01 A3004 RMK A01 T00641012  RH  058%=      5-min Rain = 0
KMD1 111951Z 33009KT 07/M01 A3004 RMK A01 T00681007  RH  059%=      5-min Rain = 0
KMD1 111952Z 32010KT 08/M00 A3004 RMK A01 T00751004  RH  058%=      5-min Rain = 0
KMD1 111953Z 33011KT 08/M01 A3004 RMK A01 T00771006  RH  056%=      5-min Rain = 0
KMD1 111954Z 32015KT 08/M01 A3004 RMK A01 T00771010  RH  054%=      5-min Rain = 0
KMD1 111955Z 33013KT 07/M01 A3004 RMK A01 T00731012  RH  055%=      5-min Rain = 0
KMD1 111956Z 32008KT 07/M01 A3004 RMK A01 T00721010  RH  056%=      5-min Rain = 0
KMD1 111957Z 32012KT 07/M01 A3004 RMK A01 T00741009  RH  056%=      5-min Rain = 0
KMD1 111958Z 33010KT 07/M01 A3004 RMK A01 T00731011  RH  055%=      5-min Rain = 0
KMD1 111959Z 33011KT 07/M01 A3004 RMK A01 T00731009  RH  056%=      5-min Rain = 0
KMD1 112000Z 33014KT 07/M01 A3004 RMK A01 T00741009  RH  056%=      5-min Rain = 0
KMD1 112001Z 33012G17KT 07/M01 A3004 RMK A01 T00741009  RH  055%=      5-min Rain = 0
KMD1 112002Z 33013KT 07/M01 A3004 RMK A01 T00741009  RH  056%=      5-min Rain = 0
KMD1 112003Z 32012KT 07/M01 A3004 RMK A01 T00741010  RH  055%=      5-min Rain = 0
KMD1 112004Z 34011KT 08/M01 A3004 RMK A01 T00751008  RH  056%=      5-min Rain = 0
KMD1 112005Z 34012KT 08/M01 A3004 RMK A01 T00761008  RH  055%=      5-min Rain = 0
KMD1 112006Z 32011KT 08/M01 A3004 RMK A01 T00761008  RH  055%=      5-min Rain = 0
KMD1 112007Z 33011KT 08/M01 A3004 RMK A01 T00761008  RH  055%=      5-min Rain = 0
KMD1 112008Z 34012KT 08/M01 A3004 RMK A01 T00781006  RH  055%=      5-min Rain = 0
KMD1 112009Z 32014G23KT 08/M01 A3004 RMK A01 T00801007  RH  054%=      5-min Rain = 0
KMD1 112010Z 32020KT 08/M01 A3004 RMK A01 T00811009  RH  053%=      5-min Rain = 0
KMD1 112011Z 32017KT 08/M01 A3004 RMK A01 T00801008  RH  054%=      5-min Rain = 0
KMD1 112012Z 32018G23KT 08/M01 A3004 RMK A01 T00801009  RH  053%=      5-min Rain = 0
KMD1 112013Z 34022G28KT 08/M01 A3005 RMK A01 T00801010  RH  053%=      5-min Rain = 0
KMD1 112014Z 32020KT 08/M01 A3005 RMK A01 T00801012  RH  052%=      5-min Rain = 0
KMD1 112015Z 33022G27KT 08/M01 A3005 RMK A01 T00801014  RH  051%=      5-min Rain = 0
KMD1 112016Z 32023G31KT 08/M02 A3005 RMK A01 T00781016  RH  051%=      5-min Rain = 0
KMD1 112017Z 33020G25KT 08/M02 A3005 RMK A01 T00771015  RH  052%=      5-min Rain = 0
KMD1 112018Z 33019KT 08/M02 A3005 RMK A01 T00771016  RH  052%=      5-min Rain = 0
KMD1 112019Z 33018G23KT 08/M02 A3005 RMK A01 T00771017  RH  052%=      5-min Rain = 0
KMD1 112020Z 33014KT 08/M02 A3005 RMK A01 T00771016  RH  052%=      5-min Rain = 0
KMD1 112021Z 33016KT 08/M02 A3005 RMK A01 T00791015  RH  051%=      5-min Rain = 0
KMD1 112022Z 34017KT 08/M02 A3005 RMK A01 T00801017  RH  051%=      5-min Rain = 0
KMD1 112023Z 32018G23KT 08/M02 A3005 RMK A01 T00791016  RH  051%=      5-min Rain = 0
KMD1 112024Z 34017G23KT 08/M02 A3006 RMK A01 T00801015  RH  051%=      5-min Rain = 0
KMD1 112025Z 33016KT 08/M02 A3005 RMK A01 T00801016  RH  050%=      5-min Rain = 0
KMD1 112026Z 32017G22KT 08/M02 A3005 RMK A01 T00801016  RH  051%=      5-min Rain = 0
KMD1 112027Z 32019KT 08/M02 A3005 RMK A01 T00801016  RH  051%=      5-min Rain = 0
KMD1 112028Z 32020KT 08/M02 A3005 RMK A01 T00791018  RH  050%=      5-min Rain = 0
KMD1 112029Z 32019G25KT 08/M02 A3005 RMK A01 T00791017  RH  051%=      5-min Rain = 0
KMD1 112030Z 32019KT 08/M02 A3005 RMK A01 T00791017  RH  051%=      5-min Rain = 0
KMD1 112031Z 33015G21KT 08/M02 A3005 RMK A01 T00801017  RH  051%=      5-min Rain = 0
KMD1 112032Z 33013KT 08/M02 A3006 RMK A01 T00811017  RH  050%=      5-min Rain = 0
KMD1 112033Z 32012KT 08/M02 A3006 RMK A01 T00811016  RH  050%=      5-min Rain = 0
KMD1 112034Z 33012G17KT 08/M02 A3006 RMK A01 T00831015  RH  050%=      5-min Rain = 0
KMD1 112035Z 34012G18KT 08/M02 A3006 RMK A01 T00841016  RH  050%=      5-min Rain = 0
KMD1 112036Z 32014KT 09/M02 A3006 RMK A01 T00851015  RH  049%=      5-min Rain = 0
KMD1 112037Z 33014G19KT 09/M02 A3006 RMK A01 T00861015  RH  049%=      5-min Rain = 0
KMD1 112038Z 33017KT 09/M02 A3006 RMK A01 T00881015  RH  048%=      5-min Rain = 0
KMD1 112039Z 33016G23KT 09/M02 A3006 RMK A01 T00881016  RH  048%=      5-min Rain = 0
KMD1 112040Z 33020G28KT 09/M02 A3006 RMK A01 T00881017  RH  048%=      5-min Rain = 0
KMD1 112041Z 34017G23KT 09/M02 A3006 RMK A01 T00871018  RH  048%=      5-min Rain = 0
KMD1 112042Z 34024G29KT 09/M02 A3006 RMK A01 T00871018  RH  048%=      5-min Rain = 0
KMD1 112043Z 33020G25KT 09/M02 A3005 RMK A01 T00871017  RH  048%=      5-min Rain = 0
KMD1 112044Z 34017KT 09/M02 A3006 RMK A01 T00901015  RH  048%=      5-min Rain = 0
KMD1 112045Z 34021G27KT 09/M02 A3005 RMK A01 T00921015  RH  047%=      5-min Rain = 0
KMD1 112046Z 32016KT 09/M02 A3005 RMK A01 T00931016  RH  047%=      5-min Rain = 0
KMD1 112047Z 33012G18KT 10/M01 A3006 RMK A01 T00951013  RH  047%=      5-min Rain = 0
KMD1 112048Z 32014KT 10/M01 A3005 RMK A01 T01001010  RH  046%=      5-min Rain = 0
KMD1 112049Z 34015KT 10/M02 A3005 RMK A01 T01001015  RH  045%=      5-min Rain = 0
KMD1 112050Z 34015KT 10/M02 A3006 RMK A01 T00971016  RH  045%=      5-min Rain = 0
KMD1 112051Z 34019G26KT 10/M02 A3005 RMK A01 T00961016  RH  045%=      5-min Rain = 0
KMD1 112052Z 33019G24KT 10/M02 A3005 RMK A01 T00951016  RH  046%=      5-min Rain = 0
KMD1 112053Z 34018KT 10/M02 A3005 RMK A01 T00961015  RH  046%=      5-min Rain = 0
KMD1 112054Z 35021G26KT 10/M02 A3005 RMK A01 T00971017  RH  045%=      5-min Rain = 0
KMD1 112055Z 33019G25KT 10/M02 A3005 RMK A01 T00961017  RH  045%=      5-min Rain = 0
KMD1 112056Z 33018G26KT 10/M02 A3005 RMK A01 T00961018  RH  045%=      5-min Rain = 0
KMD1 112057Z 33015G20KT 10/M02 A3005 RMK A01 T00981017  RH  045%=      5-min Rain = 0
KMD1 112058Z 34017G23KT 10/M02 A3006 RMK A01 T00991017  RH  044%=      5-min Rain = 0
KMD1 112059Z 33015KT 10/M02 A3006 RMK A01 T00981018  RH  044%=      5-min Rain = 0
KMD1 112100Z 34018KT 10/M02 A3006 RMK A01 T00991018  RH  044%=      5-min Rain = 0
KMD1 112101Z 33020KT 10/M02 A3006 RMK A01 T00991019  RH  044%=      5-min Rain = 0
KMD1 112102Z 33022G27KT 10/M02 A3006 RMK A01 T00971020  RH  044%=      5-min Rain = 0
KMD1 112103Z 33020G29KT 10/M02 A3006 RMK A01 T00971021  RH  044%=      5-min Rain = 0
KMD1 112104Z 33019KT 10/M02 A3006 RMK A01 T00971021  RH  044%=      5-min Rain = 0
KMD1 112105Z 34017KT 10/M02 A3006 RMK A01 T00971021  RH  043%=      5-min Rain = 0
KMD1 112106Z 33021KT 10/M02 A3006 RMK A01 T00981021  RH  043%=      5-min Rain = 0
KMD1 112107Z 34020KT 10/M02 A3006 RMK A01 T00981021  RH  043%=      5-min Rain = 0
KMD1 112108Z 34024G31KT 10/M02 A3007 RMK A01 T00981021  RH  043%=      5-min Rain = 0
KMD1 112109Z 33023G28KT 10/M02 A3006 RMK A01 T00981022  RH  043%=      5-min Rain = 0
KMD1 112110Z 32021KT 10/M02 A3007 RMK A01 T00971022  RH  043%=      5-min Rain = 0
KMD1 112111Z 33017G22KT 10/M02 A3007 RMK A01 T00981020  RH  043%=      5-min Rain = 0
KMD1 112112Z 32018KT 10/M02 A3007 RMK A01 T01001020  RH  043%=      5-min Rain = 0
KMD1 112113Z 33016G22KT 10/M02 A3007 RMK A01 T01021020  RH  043%=      5-min Rain = 0
KMD1 112114Z 33018G24KT 10/M02 A3007 RMK A01 T01011020  RH  042%=      5-min Rain = 0
KMD1 112115Z 33018G25KT 10/M02 A3007 RMK A01 T01011021  RH  042%=      5-min Rain = 0
KMD1 112116Z 33017KT 10/M02 A3007 RMK A01 T01001021  RH  043%=      5-min Rain = 0
KMD1 112117Z 32018KT 10/M02 A3007 RMK A01 T01011021  RH  043%=      5-min Rain = 0
KMD1 112118Z 32016KT 10/M02 A3007 RMK A01 T01021019  RH  043%=      5-min Rain = 0
KMD1 112119Z 32016KT 10/M02 A3007 RMK A01 T01041019  RH  042%=      5-min Rain = 0
KMD1 112120Z 32015KT 11/M02 A3007 RMK A01 T01051019  RH  042%=      5-min Rain = 0
KMD1 112121Z 32016G21KT 11/M02 A3007 RMK A01 T01071019  RH  042%=      5-min Rain = 0
KMD1 112122Z 32022G30KT 11/M02 A3007 RMK A01 T01071020  RH  041%=      5-min Rain = 0
KMD1 112123Z 34021G28KT 11/M02 A3007 RMK A01 T01051022  RH  041%=      5-min Rain = 0
KMD1 112124Z 33017G26KT 10/M02 A3007 RMK A01 T01041021  RH  042%=      5-min Rain = 0
KMD1 112125Z 33018G24KT 11/M02 A3007 RMK A01 T01051020  RH  041%=      5-min Rain = 0
KMD1 112126Z 33015KT 11/M02 A3007 RMK A01 T01051021  RH  041%=      5-min Rain = 0
KMD1 112127Z 33013G19KT 11/M02 A3007 RMK A01 T01061020  RH  041%=      5-min Rain = 0
KMD1 112128Z 33014KT 11/M02 A3007 RMK A01 T01081019  RH  041%=      5-min Rain = 0
KMD1 112129Z 34020G25KT 11/M02 A3007 RMK A01 T01081020  RH  041%=      5-min Rain = 0
KMD1 112130Z 34020KT 11/M02 A3007 RMK A01 T01091022  RH  040%=      5-min Rain = 0
KMD1 112131Z 33017G23KT 11/M02 A3007 RMK A01 T01081022  RH  040%=      5-min Rain = 0
KMD1 112132Z 33016G21KT 11/M02 A3007 RMK A01 T01081023  RH  040%=      5-min Rain = 0
KMD1 112133Z 34018KT 11/M02 A3007 RMK A01 T01081024  RH  040%=      5-min Rain = 0
KMD1 112134Z 34019G27KT 11/M02 A3007 RMK A01 T01081024  RH  040%=      5-min Rain = 0
KMD1 112135Z 34022G28KT 11/M03 A3007 RMK A01 T01101025  RH  039%=      5-min Rain = 0
KMD1 112136Z 35023G28KT 11/M03 A3007 RMK A01 T01071028  RH  039%=      5-min Rain = 0
KMD1 112137Z 35021G26KT 11/M03 A3008 RMK A01 T01061028  RH  039%=      5-min Rain = 0
KMD1 112138Z 34022G27KT 11/M03 A3008 RMK A01 T01061027  RH  039%=      5-min Rain = 0
KMD1 112139Z 34022KT 11/M03 A3008 RMK A01 T01061027  RH  039%=      5-min Rain = 0
KMD1 112140Z 34020KT 11/M03 A3008 RMK A01 T01071027  RH  039%=      5-min Rain = 0
KMD1 112141Z 34021G27KT 11/M03 A3008 RMK A01 T01071027  RH  039%=      5-min Rain = 0
KMD1 112142Z 34023G30KT 11/M03 A3008 RMK A01 T01071027  RH  039%=      5-min Rain = 0
KMD1 112143Z 34020G25KT 11/M03 A3008 RMK A01 T01071028  RH  039%=      5-min Rain = 0
KMD1 112144Z 33019G25KT 11/M03 A3008 RMK A01 T01071027  RH  039%=      5-min Rain = 0
KMD1 112145Z 32020G25KT 11/M03 A3008 RMK A01 T01081026  RH  039%=      5-min Rain = 0
KMD1 112146Z 31019G24KT 11/M03 A3008 RMK A01 T01081027  RH  039%=      5-min Rain = 0
KMD1 112147Z 31022KT 11/M03 A3008 RMK A01 T01081027  RH  039%=      5-min Rain = 0
KMD1 112148Z 33023KT 11/M03 A3009 RMK A01 T01081028  RH  038%=      5-min Rain = 0
KMD1 112149Z 33022G31KT 11/M03 A3009 RMK A01 T01051031  RH  038%=      5-min Rain = 0
KMD1 112150Z 32018G24KT 10/M03 A3009 RMK A01 T01041028  RH  039%=      5-min Rain = 0
KMD1 112151Z 33023G28KT 11/M03 A3009 RMK A01 T01051029  RH  039%=      5-min Rain = 0
KMD1 112152Z 33024G33KT 10/M03 A3009 RMK A01 T01041030  RH  039%=      5-min Rain = 0
KMD1 112153Z 33022G28KT 10/M03 A3009 RMK A01 T01021031  RH  039%=      5-min Rain = 0
KMD1 112154Z 32020G25KT 10/M03 A3009 RMK A01 T01011031  RH  039%=      5-min Rain = 0
KMD1 112155Z 34018G25KT 10/M03 A3009 RMK A01 T01021030  RH  039%=      5-min Rain = 0
KMD1 112156Z 34021KT 10/M03 A301 RMK A01 T01031031  RH  039%=      5-min Rain = 0
KMD1 112157Z 33023G31KT 10/M03 A301 RMK A01 T01031031  RH  039%=      5-min Rain = 0
KMD1 112158Z 33021G27KT 10/M03 A301 RMK A01 T01021034  RH  038%=      5-min Rain = 0
KMD1 112159Z 32019G25KT 10/M04 A301 RMK A01 T01021035  RH  038%=      5-min Rain = 0
KMD1 112200Z 33019G27KT 10/M04 A301 RMK A01 T01021037  RH  037%=      5-min Rain = 0
KMD1 112201Z 33022KT 10/M04 A301 RMK A01 T01021040  RH  037%=      5-min Rain = 0
KMD1 112202Z 34023G33KT 10/M04 A301 RMK A01 T01011043  RH  036%=      5-min Rain = 0
KMD1 112203Z 33019G27KT 10/M05 A301 RMK A01 T01001046  RH  035%=      5-min Rain = 0
KMD1 112204Z 33019G26KT 10/M05 A301 RMK A01 T01001046  RH  036%=      5-min Rain = 0
KMD1 112205Z 33023G30KT 10/M05 A301 RMK A01 T01001046  RH  035%=      5-min Rain = 0
KMD1 112206Z 33026G33KT 10/M05 A301 RMK A01 T01001049  RH  035%=      5-min Rain = 0
KMD1 112207Z 34024G29KT 10/M05 A301 RMK A01 T00991051  RH  034%=      5-min Rain = 0
KMD1 112208Z 34025G31KT 10/M05 A301 RMK A01 T00981052  RH  034%=      5-min Rain = 0
KMD1 112209Z 34020G25KT 10/M05 A301 RMK A01 T00981051  RH  035%=      5-min Rain = 0
KMD1 112210Z 34017G23KT 10/M05 A301 RMK A01 T00981050  RH  035%=      5-min Rain = 0
KMD1 112211Z 34014KT 10/M05 A301 RMK A01 T01001050  RH  035%=      5-min Rain = 0
KMD1 112212Z 35018G24KT 10/M05 A301 RMK A01 T01011050  RH  034%=      5-min Rain = 0
KMD1 112213Z 34015G20KT 10/M05 A301 RMK A01 T01021050  RH  034%=      5-min Rain = 0
KMD1 112214Z 34014G19KT 10/M05 A301 RMK A01 T01031049  RH  034%=      5-min Rain = 0
KMD1 112215Z 33014G20KT 10/M05 A301 RMK A01 T01031050  RH  034%=      5-min Rain = 0
KMD1 112216Z 34017G22KT 10/M05 A301 RMK A01 T01041050  RH  034%=      5-min Rain = 0
KMD1 112217Z 34018G24KT 10/M05 A301 RMK A01 T01031051  RH  033%=      5-min Rain = 0
KMD1 112218Z 34021G30KT 10/M05 A301 RMK A01 T01031051  RH  033%=      5-min Rain = 0
KMD1 112219Z 33023KT 10/M05 A301 RMK A01 T01021053  RH  033%=      5-min Rain = 0
KMD1 112220Z 34024KT 10/M05 A3011 RMK A01 T01021053  RH  033%=      5-min Rain = 0
KMD1 112221Z 34023G28KT 10/M06 A301 RMK A01 T01011056  RH  033%=      5-min Rain = 0
KMD1 112222Z 33023G29KT 10/M06 A3011 RMK A01 T01011057  RH  032%=      5-min Rain = 0
KMD1 112223Z 33019G25KT 10/M06 A3011 RMK A01 T01021057  RH  032%=      5-min Rain = 0
KMD1 112224Z 33016KT 10/M06 A3011 RMK A01 T01021057  RH  032%=      5-min Rain = 0
KMD1 112225Z 33021KT 10/M06 A3011 RMK A01 T01021057  RH  032%=      5-min Rain = 0
KMD1 112226Z 32021G29KT 10/M06 A3011 RMK A01 T01021059  RH  032%=      5-min Rain = 0
KMD1 112227Z 33021G26KT 10/M06 A3011 RMK A01 T01021060  RH  031%=      5-min Rain = 0
KMD1 112228Z 33020G28KT 10/M06 A3011 RMK A01 T01021061  RH  031%=      5-min Rain = 0
KMD1 112229Z 33021G27KT 10/M06 A3011 RMK A01 T01021060  RH  031%=      5-min Rain = 0
KMD1 112230Z 33018G27KT 10/M06 A3011 RMK A01 T01011060  RH  031%=      5-min Rain = 0
KMD1 112231Z 33014KT 10/M06 A3011 RMK A01 T01011059  RH  032%=      5-min Rain = 0
KMD1 112232Z 33013KT 10/M06 A3011 RMK A01 T01031057  RH  032%=      5-min Rain = 0
KMD1 112233Z 33018G25KT 10/M06 A3011 RMK A01 T01031058  RH  032%=      5-min Rain = 0
KMD1 112234Z 34015KT 10/M06 A3011 RMK A01 T01031059  RH  031%=      5-min Rain = 0
KMD1 112235Z 34016G23KT 10/M06 A3012 RMK A01 T01031059  RH  031%=      5-min Rain = 0
KMD1 112236Z 34015KT 10/M06 A3012 RMK A01 T01031059  RH  031%=      5-min Rain = 0
KMD1 112237Z 33019G24KT 10/M06 A3012 RMK A01 T01031062  RH  031%=      5-min Rain = 0
KMD1 112238Z 34023G29KT 10/M07 A3012 RMK A01 T01031066  RH  030%=      5-min Rain = 0
KMD1 112239Z 34022G27KT 10/M07 A3012 RMK A01 T01021070  RH  029%=      5-min Rain = 0
KMD1 112240Z 34021G30KT 10/M07 A3012 RMK A01 T01011071  RH  029%=      5-min Rain = 0
KMD1 112241Z 34021KT 10/M07 A3012 RMK A01 T01011071  RH  029%=      5-min Rain = 0
KMD1 112242Z 34022G27KT 10/M07 A3012 RMK A01 T01021072  RH  029%=      5-min Rain = 0
KMD1 112243Z 34020G28KT 10/M07 A3012 RMK A01 T01011073  RH  029%=      5-min Rain = 0
KMD1 112244Z 34018G24KT 10/M07 A3012 RMK A01 T01001073  RH  029%=      5-min Rain = 0
KMD1 112245Z 33019G25KT 10/M07 A3012 RMK A01 T01001072  RH  029%=      5-min Rain = 0
KMD1 112246Z 33018KT 10/M07 A3012 RMK A01 T01011072  RH  029%=      5-min Rain = 0
KMD1 112247Z 33021G27KT 10/M07 A3012 RMK A01 T01011072  RH  029%=      5-min Rain = 0
KMD1 112248Z 33022G28KT 10/M07 A3012 RMK A01 T01001073  RH  029%=      5-min Rain = 0
KMD1 112249Z 33016KT 10/M07 A3012 RMK A01 T01001072  RH  029%=      5-min Rain = 0
KMD1 112250Z 33017G25KT 10/M07 A3012 RMK A01 T01001071  RH  029%=      5-min Rain = 0
KMD1 112251Z 34019G24KT 10/M07 A3012 RMK A01 T01001072  RH  029%=      5-min Rain = 0
KMD1 112252Z 33016KT 10/M07 A3012 RMK A01 T01001072  RH  029%=      5-min Rain = 0
KMD1 112253Z 33020G25KT 10/M07 A3012 RMK A01 T01001071  RH  029%=      5-min Rain = 0
KMD1 112254Z 33018G23KT 10/M07 A3012 RMK A01 T01001072  RH  029%=      5-min Rain = 0
KMD1 112255Z 33018G24KT 10/M07 A3012 RMK A01 T01001071  RH  029%=      5-min Rain = 0
KMD1 112256Z 33018KT 10/M07 A3012 RMK A01 T01001072  RH  029%=      5-min Rain = 0
KMD1 112257Z 33013KT 10/M07 A3012 RMK A01 T01001071  RH  029%=      5-min Rain = 0
KMD1 112258Z 33017KT 10/M07 A3012 RMK A01 T01001071  RH  029%=      5-min Rain = 0
KMD1 112259Z 33014KT 10/M07 A3012 RMK A01 T01001071  RH  029%=      5-min Rain = 0
KMD1 112300Z 32017KT 10/M07 A3012 RMK A01 T00991070  RH  030%=      5-min Rain = 0
KMD1 112301Z 32017KT 10/M07 A3012 RMK A01 T00991071  RH  029%=      5-min Rain = 0
KMD1 112302Z 33014KT 10/M07 A3012 RMK A01 T01001070  RH  030%=      5-min Rain = 0
KMD1 112303Z 32012G18KT 10/M07 A3012 RMK A01 T01001070  RH  030%=      5-min Rain = 0
KMD1 112304Z 32017KT 10/M07 A3012 RMK A01 T01001071  RH  029%=      5-min Rain = 0
KMD1 112305Z 34014G19KT 10/M07 A3013 RMK A01 T01001071  RH  029%=      5-min Rain = 0
KMD1 112306Z 33012G18KT 10/M07 A3013 RMK A01 T00991071  RH  029%=      5-min Rain = 0
KMD1 112307Z 33013G19KT 10/M07 A3013 RMK A01 T01001072  RH  029%=      5-min Rain = 0
KMD1 112308Z 31017G25KT 10/M07 A3012 RMK A01 T01001073  RH  029%=      5-min Rain = 0
KMD1 112309Z 32021G26KT 10/M08 A3012 RMK A01 T01001077  RH  028%=      5-min Rain = 0
KMD1 112310Z 33022G29KT 10/M08 A3013 RMK A01 T01011081  RH  027%=      5-min Rain = 0
KMD1 112311Z 32021KT 10/M08 A3013 RMK A01 T01001084  RH  027%=      5-min Rain = 0
KMD1 112312Z 33017G22KT 10/M09 A3013 RMK A01 T01001086  RH  026%=      5-min Rain = 0
KMD1 112313Z 33017G23KT 10/M09 A3013 RMK A01 T01001088  RH  026%=      5-min Rain = 0
KMD1 112314Z 33021G29KT 10/M09 A3013 RMK A01 T00991093  RH  025%=      5-min Rain = 0
KMD1 112315Z 33019G25KT 10/M09 A3013 RMK A01 T00991094  RH  025%=      5-min Rain = 0
KMD1 112316Z 33016G23KT 10/M09 A3014 RMK A01 T00981094  RH  025%=      5-min Rain = 0
KMD1 112317Z 33015KT 10/M09 A3014 RMK A01 T00981093  RH  025%=      5-min Rain = 0
KMD1 112318Z 33018G24KT 10/M09 A3014 RMK A01 T00981093  RH  025%=      5-min Rain = 0
KMD1 112319Z 34015KT 10/M09 A3014 RMK A01 T00971094  RH  025%=      5-min Rain = 0
KMD1 112320Z 33016G24KT 10/M09 A3014 RMK A01 T00971093  RH  025%=      5-min Rain = 0
KMD1 112321Z 33017G25KT 10/M10 A3014 RMK A01 T00961096  RH  025%=      5-min Rain = 0
KMD1 112322Z 33017G27KT 10/M10 A3014 RMK A01 T00961096  RH  025%=      5-min Rain = 0
KMD1 112323Z 33019G24KT 10/M10 A3014 RMK A01 T00961097  RH  025%=      5-min Rain = 0
KMD1 112324Z 33018KT 10/M10 A3014 RMK A01 T00961098  RH  024%=      5-min Rain = 0
KMD1 112325Z 33019G24KT 10/M10 A3014 RMK A01 T00961099  RH  024%=      5-min Rain = 0
KMD1 112326Z 34016G24KT 10/M10 A3014 RMK A01 T00961099  RH  024%=      5-min Rain = 0
KMD1 112327Z 34021G28KT 10/M10 A3014 RMK A01 T00961099  RH  024%=      5-min Rain = 0
KMD1 112328Z 34016KT 10/M10 A3014 RMK A01 T00951099  RH  024%=      5-min Rain = 0
KMD1 112329Z 33014KT 10/M10 A3015 RMK A01 T00951099  RH  024%=      5-min Rain = 0
KMD1 112330Z 33012KT 09/M10 A3015 RMK A01 T00941099  RH  024%=      5-min Rain = 0
KMD1 112331Z 34012KT 09/M10 A3015 RMK A01 T00941098  RH  025%=      5-min Rain = 0
KMD1 112332Z 34015G24KT 09/M10 A3015 RMK A01 T00931098  RH  025%=      5-min Rain = 0
KMD1 112333Z 34023G29KT 09/M10 A3015 RMK A01 T00931098  RH  025%=      5-min Rain = 0
KMD1 112334Z 34016KT 09/M10 A3015 RMK A01 T00931099  RH  025%=      5-min Rain = 0
KMD1 112335Z 33018KT 09/M10 A3015 RMK A01 T00931099  RH  025%=      5-min Rain = 0
KMD1 112336Z 34015G20KT 09/M10 A3015 RMK A01 T00931099  RH  025%=      5-min Rain = 0
KMD1 112337Z 34015G23KT 09/M10 A3015 RMK A01 T00931098  RH  025%=      5-min Rain = 0
KMD1 112338Z 33013KT 09/M10 A3015 RMK A01 T00921097  RH  025%=      5-min Rain = 0
KMD1 112339Z 34015KT 09/M10 A3015 RMK A01 T00921097  RH  025%=      5-min Rain = 0
KMD1 112340Z 34010KT 09/M10 A3016 RMK A01 T00911097  RH  025%=      5-min Rain = 0
KMD1 112341Z 34010KT 09/M10 A3016 RMK A01 T00901096  RH  026%=      5-min Rain = 0
KMD1 112342Z 34013KT 09/M10 A3016 RMK A01 T00901095  RH  026%=      5-min Rain = 0
KMD1 112343Z 35013G19KT 09/M10 A3016 RMK A01 T00891096  RH  026%=      5-min Rain = 0
KMD1 112344Z 34014KT 09/M10 A3016 RMK A01 T00891096  RH  026%=      5-min Rain = 0
KMD1 112345Z 34014KT 09/M10 A3016 RMK A01 T00891095  RH  026%=      5-min Rain = 0
KMD1 112346Z 34013KT 09/M10 A3016 RMK A01 T00891096  RH  026%=      5-min Rain = 0
KMD1 112347Z 34011G16KT 09/M10 A3016 RMK A01 T00891095  RH  026%=      5-min Rain = 0
KMD1 112348Z 35015KT 09/M10 A3016 RMK A01 T00881095  RH  027%=      5-min Rain = 0
KMD1 112349Z 35017G22KT 09/M09 A3016 RMK A01 T00871094  RH  027%=      5-min Rain = 0
KMD1 112350Z 34013KT 09/M09 A3016 RMK A01 T00871094  RH  027%=      5-min Rain = 0
KMD1 112351Z 34012KT 09/M09 A3016 RMK A01 T00861094  RH  027%=      5-min Rain = 0
KMD1 112352Z 34012KT 09/M09 A3016 RMK A01 T00861094  RH  027%=      5-min Rain = 0
KMD1 112353Z 34014KT 09/M09 A3016 RMK A01 T00861094  RH  027%=      5-min Rain = 0
KMD1 112354Z 34013KT 09/M09 A3016 RMK A01 T00861093  RH  027%=      5-min Rain = 0
KMD1 112355Z 33010KT 09/M09 A3017 RMK A01 T00851093  RH  027%=      5-min Rain = 0
KMD1 112356Z 33012G17KT 08/M09 A3017 RMK A01 T00841093  RH  027%=      5-min Rain = 0
KMD1 112357Z 34013KT 09/M09 A3017 RMK A01 T00851093  RH  027%=      5-min Rain = 0
KMD1 112358Z 34011G17KT 09/M09 A3017 RMK A01 T00851093  RH  027%=      5-min Rain = 0
KMD1 112359Z 33010G15KT 08/M09 A3017 RMK A01 T00841093  RH  027%=      5-min Rain = 0
KMD1 120000Z 34013KT 08/M09 A3017 RMK A01 T00841093  RH  028%=      5-min Rain = 0
KMD1 120001Z 33011KT 08/M09 A3017 RMK A01 T00841092  RH  028%=      5-min Rain = 0
KMD1 120002Z 33014KT 08/M09 A3017 RMK A01 T00831092  RH  028%=      5-min Rain = 0
KMD1 120003Z 33011KT 08/M09 A3017 RMK A01 T00831093  RH  028%=      5-min Rain = 0
KMD1 120004Z 33009KT 08/M09 A3017 RMK A01 T00841092  RH  028%=      5-min Rain = 0
KMD1 120005Z 33011G16KT 08/M09 A3017 RMK A01 T00831092  RH  028%=      5-min Rain = 0
KMD1 120006Z 33011KT 08/M09 A3017 RMK A01 T00831092  RH  028%=      5-min Rain = 0
KMD1 120007Z 33010KT 08/M09 A3017 RMK A01 T00831092  RH  028%=      5-min Rain = 0
KMD1 120008Z 33010KT 08/M09 A3017 RMK A01 T00831092  RH  028%=      5-min Rain = 0
KMD1 120009Z 35011G16KT 08/M09 A3018 RMK A01 T00831093  RH  028%=      5-min Rain = 0
KMD1 120010Z 33012KT 08/M09 A3017 RMK A01 T00831093  RH  028%=      5-min Rain = 0
KMD1 120011Z 34011KT 08/M09 A3017 RMK A01 T00831092  RH  028%=      5-min Rain = 0
KMD1 120012Z 34012KT 08/M09 A3017 RMK A01 T00821093  RH  028%=      5-min Rain = 0
KMD1 120013Z 35012KT 08/M09 A3017 RMK A01 T00821093  RH  028%=      5-min Rain = 0
KMD1 120014Z 34011KT 08/M09 A3018 RMK A01 T00821093  RH  028%=      5-min Rain = 0
KMD1 120015Z 35011KT 08/M09 A3018 RMK A01 T00821093  RH  028%=      5-min Rain = 0
KMD1 120016Z 34011KT 08/M09 A3018 RMK A01 T00811093  RH  028%=      5-min Rain = 0
KMD1 120017Z 34010KT 08/M09 A3018 RMK A01 T00801093  RH  028%=      5-min Rain = 0
KMD1 120018Z 34009KT 08/M09 A3018 RMK A01 T00791094  RH  028%=      5-min Rain = 0
KMD1 120019Z 34012KT 08/M10 A3018 RMK A01 T00791095  RH  028%=      5-min Rain = 0
KMD1 120020Z 35009KT 08/M10 A3018 RMK A01 T00791095  RH  028%=      5-min Rain = 0
KMD1 120021Z 34011KT 08/M10 A3018 RMK A01 T00791095  RH  028%=      5-min Rain = 0
KMD1 120022Z 35010KT 08/M10 A3018 RMK A01 T00791096  RH  028%=      5-min Rain = 0
KMD1 120023Z 34010KT 08/M10 A3018 RMK A01 T00791095  RH  028%=      5-min Rain = 0
KMD1 120024Z 35011KT 08/M10 A3018 RMK A01 T00771096  RH  028%=      5-min Rain = 0
KMD1 120025Z 35011KT 08/M10 A3018 RMK A01 T00771096  RH  028%=      5-min Rain = 0
KMD1 120026Z 35012KT 08/M10 A3018 RMK A01 T00771097  RH  028%=      5-min Rain = 0
KMD1 120027Z 35010KT 08/M10 A3018 RMK A01 T00781097  RH  028%=      5-min Rain = 0
KMD1 120028Z 35008KT 08/M10 A3018 RMK A01 T00781097  RH  028%=      5-min Rain = 0
KMD1 120029Z 34010KT 08/M10 A3018 RMK A01 T00771097  RH  028%=      5-min Rain = 0
KMD1 120030Z 34009KT 08/M10 A3018 RMK A01 T00771098  RH  028%=      5-min Rain = 0
KMD1 120031Z 34007KT 08/M10 A3018 RMK A01 T00771097  RH  028%=      5-min Rain = 0
KMD1 120032Z 35007KT 08/M10 A3018 RMK A01 T00761097  RH  028%=      5-min Rain = 0
KMD1 120033Z 34006KT 08/M10 A3018 RMK A01 T00751098  RH  028%=      5-min Rain = 0
KMD1 120034Z 34008KT 07/M10 A3018 RMK A01 T00731098  RH  028%=      5-min Rain = 0
KMD1 120035Z 34006KT 07/M10 A3018 RMK A01 T00731097  RH  029%=      5-min Rain = 0
KMD1 120036Z 34007KT 07/M10 A3018 RMK A01 T00721097  RH  029%=      5-min Rain = 0
KMD1 120037Z 34008KT 07/M10 A3018 RMK A01 T00721098  RH  029%=      5-min Rain = 0
KMD1 120038Z 33006KT 07/M10 A3018 RMK A01 T00731097  RH  029%=      5-min Rain = 0
KMD1 120039Z 34004KT 07/M10 A3018 RMK A01 T00731098  RH  028%=      5-min Rain = 0
KMD1 120040Z 34005KT 07/M10 A3018 RMK A01 T00731098  RH  029%=      5-min Rain = 0
KMD1 120041Z 33005KT 07/M10 A3018 RMK A01 T00721098  RH  029%=      5-min Rain = 0
KMD1 120042Z 33004KT 07/M10 A3018 RMK A01 T00711097  RH  029%=      5-min Rain = 0
KMD1 120043Z 34004KT 07/M10 A3018 RMK A01 T00691098  RH  029%=      5-min Rain = 0
KMD1 120044Z 34006KT 07/M10 A3019 RMK A01 T00691098  RH  029%=      5-min Rain = 0
KMD1 120045Z 33006KT 07/M10 A3019 RMK A01 T00691098  RH  029%=      5-min Rain = 0
KMD1 120046Z 33004KT 07/M10 A3019 RMK A01 T00701097  RH  029%=      5-min Rain = 0
KMD1 120047Z 33005KT 07/M10 A3019 RMK A01 T00701098  RH  029%=      5-min Rain = 0
KMD1 120048Z 33004KT 07/M10 A3019 RMK A01 T00701098  RH  029%=      5-min Rain = 0
KMD1 120049Z 33005KT 07/M10 A3019 RMK A01 T00691098  RH  029%=      5-min Rain = 0
KMD1 120050Z 33005KT 07/M10 A3019 RMK A01 T00671098  RH  030%=      5-min Rain = 0
KMD1 120051Z 34005KT 07/M10 A3019 RMK A01 T00661098  RH  030%=      5-min Rain = 0
KMD1 120052Z 33006KT 07/M10 A3019 RMK A01 T00661097  RH  030%=      5-min Rain = 0
KMD1 120053Z 33005KT 07/M10 A3019 RMK A01 T00661097  RH  030%=      5-min Rain = 0
KMD1 120054Z 33005KT 07/M10 A3019 RMK A01 T00661097  RH  030%=      5-min Rain = 0
KMD1 120055Z 33006KT 07/M10 A3019 RMK A01 T00661097  RH  030%=      5-min Rain = 0
KMD1 120056Z 33006KT 07/M10 A3019 RMK A01 T00661097  RH  030%=      5-min Rain = 0
KMD1 120057Z 32005KT 07/M10 A3019 RMK A01 T00651097  RH  030%=      5-min Rain = 0
KMD1 120058Z 32006KT 07/M10 A3019 RMK A01 T00651097  RH  030%=      5-min Rain = 0
KMD1 120059Z 33009KT 06/M10 A302 RMK A01 T00641097  RH  030%=      5-min Rain = 0
KMD1 120100Z 32008KT 07/M10 A302 RMK A01 T00661097  RH  030%=      5-min Rain = 0
KMD1 120101Z 32007KT 07/M10 A302 RMK A01 T00661097  RH  030%=      5-min Rain = 0
KMD1 120102Z 33008KT 07/M10 A302 RMK A01 T00661096  RH  030%=      5-min Rain = 0
KMD1 120103Z 32007KT 07/M10 A302 RMK A01 T00661096  RH  030%=      5-min Rain = 0
KMD1 120104Z 33006KT 07/M10 A302 RMK A01 T00651096  RH  030%=      5-min Rain = 0
KMD1 120105Z 33007KT 07/M10 A302 RMK A01 T00651096  RH  031%=      5-min Rain = 0
KMD1 120106Z 34011G18KT 06/M10 A302 RMK A01 T00641096  RH  031%=      5-min Rain = 0
KMD1 120107Z 33012KT 07/M10 A302 RMK A01 T00661097  RH  030%=      5-min Rain = 0
KMD1 120108Z 35011KT 07/M10 A302 RMK A01 T00671098  RH  030%=      5-min Rain = 0
KMD1 120109Z 34013KT 07/M10 A302 RMK A01 T00691098  RH  029%=      5-min Rain = 0
KMD1 120110Z 35010G15KT 07/M10 A302 RMK A01 T00691098  RH  029%=      5-min Rain = 0
KMD1 120111Z 34008KT 07/M10 A302 RMK A01 T00681099  RH  029%=      5-min Rain = 0
KMD1 120112Z 33009G14KT 07/M10 A302 RMK A01 T00681099  RH  029%=      5-min Rain = 0
KMD1 120113Z 33009KT 07/M10 A302 RMK A01 T00671100  RH  029%=      5-min Rain = 0
KMD1 120114Z 34010KT 07/M10 A3021 RMK A01 T00671100  RH  029%=      5-min Rain = 0
KMD1 120115Z 34010KT 07/M10 A302 RMK A01 T00671100  RH  029%=      5-min Rain = 0
KMD1 120116Z 33011KT 07/M10 A302 RMK A01 T00671100  RH  029%=      5-min Rain = 0
KMD1 120117Z 34008G13KT 07/M10 A302 RMK A01 T00671100  RH  029%=      5-min Rain = 0
KMD1 120118Z 33008KT 07/M10 A302 RMK A01 T00661100  RH  029%=      5-min Rain = 0
KMD1 120119Z 33008KT 07/M10 A302 RMK A01 T00661100  RH  029%=      5-min Rain = 0
KMD1 120120Z 34009KT 07/M10 A302 RMK A01 T00671100  RH  029%=      5-min Rain = 0
KMD1 120121Z 33008KT 07/M10 A302 RMK A01 T00671101  RH  029%=      5-min Rain = 0
KMD1 120122Z 33007KT 07/M10 A302 RMK A01 T00661101  RH  029%=      5-min Rain = 0
KMD1 120123Z 34007KT 07/M10 A302 RMK A01 T00661101  RH  029%=      5-min Rain = 0
KMD1 120124Z 35008KT 07/M10 A302 RMK A01 T00661101  RH  029%=      5-min Rain = 0
KMD1 120125Z 33008KT 07/M10 A302 RMK A01 T00661100  RH  029%=      5-min Rain = 0
KMD1 120126Z 34008KT 07/M10 A302 RMK A01 T00651100  RH  030%=      5-min Rain = 0
KMD1 120127Z 34012KT 07/M10 A302 RMK A01 T00651100  RH  030%=      5-min Rain = 0
KMD1 120128Z 34009KT 07/M10 A302 RMK A01 T00661100  RH  030%=      5-min Rain = 0
KMD1 120129Z 35011KT 07/M10 A302 RMK A01 T00651100  RH  030%=      5-min Rain = 0
KMD1 120130Z 33009KT 07/M10 A302 RMK A01 T00651102  RH  029%=      5-min Rain = 0
KMD1 120131Z 34008KT 07/M10 A302 RMK A01 T00661102  RH  029%=      5-min Rain = 0
KMD1 120132Z 34008KT 07/M10 A302 RMK A01 T00651101  RH  029%=      5-min Rain = 0
KMD1 120133Z 34008KT 06/M10 A302 RMK A01 T00641101  RH  029%=      5-min Rain = 0
KMD1 120134Z 34011KT 06/M10 A302 RMK A01 T00641102  RH  029%=      5-min Rain = 0
KMD1 120135Z 34010KT 07/M10 A3021 RMK A01 T00651102  RH  029%=      5-min Rain = 0
KMD1 120136Z 33008KT 07/M10 A3021 RMK A01 T00651101  RH  029%=      5-min Rain = 0
KMD1 120137Z 34013KT 07/M10 A3021 RMK A01 T00651102  RH  029%=      5-min Rain = 0
KMD1 120138Z 34009KT 07/M10 A3021 RMK A01 T00661102  RH  029%=      5-min Rain = 0
KMD1 120139Z 33009G14KT 07/M10 A3021 RMK A01 T00661102  RH  029%=      5-min Rain = 0
KMD1 120140Z 35011KT 07/M10 A3021 RMK A01 T00661102  RH  029%=      5-min Rain = 0
KMD1 120141Z 34011KT 07/M10 A302 RMK A01 T00661102  RH  029%=      5-min Rain = 0
KMD1 120142Z 34008KT 07/M10 A3021 RMK A01 T00661102  RH  029%=      5-min Rain = 0
KMD1 120143Z 34010KT 07/M10 A3021 RMK A01 T00661102  RH  029%=      5-min Rain = 0
KMD1 120144Z 34017KT 07/M10 A3021 RMK A01 T00651103  RH  029%=      5-min Rain = 0
KMD1 120145Z 34009KT 07/M10 A3021 RMK A01 T00661102  RH  029%=      5-min Rain = 0
KMD1 120146Z 33009KT 07/M10 A3021 RMK A01 T00651103  RH  029%=      5-min Rain = 0
KMD1 120147Z 34009KT 07/M10 A3021 RMK A01 T00651103  RH  029%=      5-min Rain = 0
KMD1 120148Z 34009KT 06/M10 A3021 RMK A01 T00641103  RH  029%=      5-min Rain = 0
KMD1 120149Z 34010KT 06/M10 A3021 RMK A01 T00641103  RH  029%=      5-min Rain = 0
KMD1 120150Z 34008KT 06/M10 A3021 RMK A01 T00641102  RH  029%=      5-min Rain = 0
KMD1 120151Z 34008G13KT 06/M10 A3021 RMK A01 T00641103  RH  029%=      5-min Rain = 0
KMD1 120152Z 34011KT 06/M10 A3021 RMK A01 T00631102  RH  029%=      5-min Rain = 0
KMD1 120153Z 34010KT 06/M10 A3021 RMK A01 T00631102  RH  029%=      5-min Rain = 0
KMD1 120154Z 33010KT 06/M10 A3021 RMK A01 T00631102  RH  029%=      5-min Rain = 0
KMD1 120155Z 33009KT 06/M10 A3021 RMK A01 T00631103  RH  029%=      5-min Rain = 0
KMD1 120156Z 33008KT 06/M10 A3021 RMK A01 T00631103  RH  029%=      5-min Rain = 0
KMD1 120157Z 33008KT 06/M10 A3021 RMK A01 T00621103  RH  030%=      5-min Rain = 0
KMD1 120158Z 34010KT 06/M10 A3021 RMK A01 T00611103  RH  030%=      5-min Rain = 0
KMD1 120159Z 33009KT 06/M10 A3021 RMK A01 T00611103  RH  030%=      5-min Rain = 0
KMD1 120200Z 34008KT 06/M10 A3021 RMK A01 T00611103  RH  030%=      5-min Rain = 0
KMD1 120201Z 34008KT 06/M10 A3021 RMK A01 T00621102  RH  030%=      5-min Rain = 0
KMD1 120202Z 33008KT 06/M10 A3021 RMK A01 T00611102  RH  030%=      5-min Rain = 0
KMD1 120203Z 33010KT 06/M10 A3021 RMK A01 T00601102  RH  030%=      5-min Rain = 0
KMD1 120204Z 34008KT 06/M10 A3021 RMK A01 T00611102  RH  030%=      5-min Rain = 0
KMD1 120205Z 33010KT 06/M10 A3021 RMK A01 T00601102  RH  030%=      5-min Rain = 0
KMD1 120206Z 33010KT 06/M10 A3021 RMK A01 T00591102  RH  030%=      5-min Rain = 0
KMD1 120207Z 34011KT 06/M10 A3022 RMK A01 T00591102  RH  030%=      5-min Rain = 0
KMD1 120208Z 34012KT 06/M10 A3022 RMK A01 T00601102  RH  030%=      5-min Rain = 0
KMD1 120209Z 33009KT 06/M10 A3022 RMK A01 T00601102  RH  030%=      5-min Rain = 0
KMD1 120210Z 32007KT 06/M10 A3022 RMK A01 T00591101  RH  030%=      5-min Rain = 0
KMD1 120211Z 33008KT 06/M10 A3022 RMK A01 T00581102  RH  031%=      5-min Rain = 0
KMD1 120212Z 33008KT 06/M10 A3022 RMK A01 T00581102  RH  031%=      5-min Rain = 0
KMD1 120213Z 33005KT 06/M10 A3022 RMK A01 T00581101  RH  031%=      5-min Rain = 0
KMD1 120214Z 33007KT 06/M10 A3022 RMK A01 T00581102  RH  031%=      5-min Rain = 0
KMD1 120215Z 33007KT 06/M10 A3022 RMK A01 T00581102  RH  031%=      5-min Rain = 0
KMD1 120216Z 32007KT 06/M10 A3022 RMK A01 T00581101  RH  031%=      5-min Rain = 0
KMD1 120217Z 32006KT 06/M10 A3022 RMK A01 T00571101  RH  031%=      5-min Rain = 0
KMD1 120218Z 33008KT 06/M10 A3022 RMK A01 T00561101  RH  031%=      5-min Rain = 0
KMD1 120219Z 33006KT 06/M10 A3023 RMK A01 T00561101  RH  031%=      5-min Rain = 0
KMD1 120220Z 33004KT 06/M10 A3023 RMK A01 T00561101  RH  031%=      5-min Rain = 0
KMD1 120221Z 34008KT 06/M10 A3023 RMK A01 T00551101  RH  031%=      5-min Rain = 0
KMD1 120222Z 33007KT 06/M10 A3023 RMK A01 T00551101  RH  032%=      5-min Rain = 0
KMD1 120223Z 32007KT 06/M10 A3023 RMK A01 T00551101  RH  032%=      5-min Rain = 0
KMD1 120224Z 32007KT 06/M10 A3023 RMK A01 T00551101  RH  032%=      5-min Rain = 0
KMD1 120225Z 35011KT 06/M10 A3023 RMK A01 T00561101  RH  031%=      5-min Rain = 0
KMD1 120226Z 34009KT 06/M10 A3023 RMK A01 T00571100  RH  031%=      5-min Rain = 0
KMD1 120227Z 33007KT 06/M10 A3023 RMK A01 T00571100  RH  031%=      5-min Rain = 0
KMD1 120228Z 34009KT 06/M10 A3023 RMK A01 T00561100  RH  031%=      5-min Rain = 0
KMD1 120229Z 34007KT 06/M10 A3023 RMK A01 T00571100  RH  031%=      5-min Rain = 0
KMD1 120230Z 33009KT 06/M10 A3023 RMK A01 T00571100  RH  031%=      5-min Rain = 0
KMD1 120231Z 34009KT 06/M10 A3024 RMK A01 T00581100  RH  031%=      5-min Rain = 0
KMD1 120232Z 34008KT 06/M10 A3024 RMK A01 T00581100  RH  031%=      5-min Rain = 0
KMD1 120233Z 34008G13KT 06/M10 A3024 RMK A01 T00581100  RH  031%=      5-min Rain = 0
KMD1 120234Z 33010KT 06/M10 A3024 RMK A01 T00581100  RH  031%=      5-min Rain = 0
KMD1 120235Z 34007KT 06/M10 A3024 RMK A01 T00581100  RH  031%=      5-min Rain = 0
KMD1 120236Z 34006KT 06/M10 A3024 RMK A01 T00581100  RH  031%=      5-min Rain = 0
KMD1 120237Z 32007KT 06/M10 A3024 RMK A01 T00581100  RH  031%=      5-min Rain = 0
KMD1 120238Z 34007KT 06/M10 A3024 RMK A01 T00581100  RH  031%=      5-min Rain = 0
KMD1 120239Z 35007KT 06/M10 A3024 RMK A01 T00581100  RH  031%=      5-min Rain = 0
KMD1 120240Z 33008KT 06/M10 A3024 RMK A01 T00581100  RH  031%=      5-min Rain = 0
KMD1 120241Z 33008KT 06/M10 A3024 RMK A01 T00581099  RH  031%=      5-min Rain = 0
KMD1 120242Z 34010KT 06/M10 A3024 RMK A01 T00581100  RH  031%=      5-min Rain = 0
KMD1 120243Z 34007KT 06/M10 A3025 RMK A01 T00591099  RH  031%=      5-min Rain = 0
KMD1 120244Z 33008KT 06/M10 A3025 RMK A01 T00591100  RH  031%=      5-min Rain = 0
KMD1 120245Z 34009KT 06/M10 A3025 RMK A01 T00581100  RH  031%=      5-min Rain = 0
KMD1 120246Z 33006KT 06/M10 A3025 RMK A01 T00581100  RH  031%=      5-min Rain = 0
KMD1 120247Z 34009KT 06/M10 A3025 RMK A01 T00581100  RH  031%=      5-min Rain = 0
KMD1 120248Z 33008KT 06/M10 A3025 RMK A01 T00581100  RH  031%=      5-min Rain = 0
KMD1 120249Z 34007KT 06/M10 A3025 RMK A01 T00581100  RH  031%=      5-min Rain = 0
KMD1 120250Z 33006KT 06/M10 A3025 RMK A01 T00581100  RH  031%=      5-min Rain = 0
KMD1 120251Z 32010KT 06/M10 A3025 RMK A01 T00581100  RH  031%=      5-min Rain = 0
KMD1 120252Z 32006G11KT 06/M10 A3025 RMK A01 T00581100  RH  031%=      5-min Rain = 0
KMD1 120253Z 32006KT 06/M10 A3026 RMK A01 T00591100  RH  031%=      5-min Rain = 0
KMD1 120254Z 33008KT 06/M10 A3026 RMK A01 T00591100  RH  031%=      5-min Rain = 0
KMD1 120255Z 32007KT 06/M10 A3026 RMK A01 T00591100  RH  031%=      5-min Rain = 0
KMD1 120256Z 32007KT 06/M10 A3026 RMK A01 T00591100  RH  031%=      5-min Rain = 0
KMD1 120257Z 33009KT 06/M10 A3026 RMK A01 T00581100  RH  031%=      5-min Rain = 0
KMD1 120258Z 33009KT 06/M10 A3026 RMK A01 T00571100  RH  031%=      5-min Rain = 0
KMD1 120259Z 32007KT 06/M10 A3026 RMK A01 T00581100  RH  031%=      5-min Rain = 0
KMD1 120300Z 33006KT 06/M10 A3026 RMK A01 T00581100  RH  031%=      5-min Rain = 0
KMD1 120301Z 32006KT 06/M10 A3026 RMK A01 T00561100  RH  031%=      5-min Rain = 0
KMD1 120302Z 32006KT 06/M10 A3026 RMK A01 T00551100  RH  032%=      5-min Rain = 0
KMD1 120303Z 32007KT 05/M10 A3026 RMK A01 T00541100  RH  032%=      5-min Rain = 0
KMD1 120304Z 32006KT 05/M10 A3026 RMK A01 T00541100  RH  032%=      5-min Rain = 0
KMD1 120305Z 31007KT 05/M10 A3026 RMK A01 T00541100  RH  032%=      5-min Rain = 0
KMD1 120306Z 32005KT 05/M10 A3026 RMK A01 T00541100  RH  032%=      5-min Rain = 0
KMD1 120307Z 32004KT 05/M10 A3026 RMK A01 T00531100  RH  032%=      5-min Rain = 0
KMD1 120308Z 32008KT 05/M10 A3027 RMK A01 T00521100  RH  032%=      5-min Rain = 0
KMD1 120309Z 32007KT 05/M10 A3027 RMK A01 T00511100  RH  033%=      5-min Rain = 0
KMD1 120310Z 31005KT 05/M10 A3027 RMK A01 T00521100  RH  032%=      5-min Rain = 0
KMD1 120311Z 31004KT 05/M10 A3027 RMK A01 T00521100  RH  032%=      5-min Rain = 0
KMD1 120312Z 31006KT 05/M10 A3027 RMK A01 T00511101  RH  032%=      5-min Rain = 0
KMD1 120313Z 32006KT 05/M10 A3027 RMK A01 T00501101  RH  033%=      5-min Rain = 0
KMD1 120314Z 31005KT 05/M10 A3027 RMK A01 T00501101  RH  033%=      5-min Rain = 0
KMD1 120315Z 32004KT 05/M10 A3027 RMK A01 T00501101  RH  033%=      5-min Rain = 0
KMD1 120316Z 32007KT 05/M10 A3027 RMK A01 T00481101  RH  033%=      5-min Rain = 0
KMD1 120317Z 31005KT 05/M10 A3027 RMK A01 T00481100  RH  033%=      5-min Rain = 0
KMD1 120318Z 31005KT 05/M10 A3027 RMK A01 T00481100  RH  033%=      5-min Rain = 0
KMD1 120319Z 31008KT 05/M10 A3027 RMK A01 T00481100  RH  033%=      5-min Rain = 0
KMD1 120320Z 31007KT 05/M10 A3027 RMK A01 T00501100  RH  033%=      5-min Rain = 0
KMD1 120321Z 31006KT 05/M10 A3027 RMK A01 T00511100  RH  033%=      5-min Rain = 0
KMD1 120322Z 31006KT 05/M10 A3027 RMK A01 T00511100  RH  033%=      5-min Rain = 0
KMD1 120323Z 31007KT 05/M10 A3027 RMK A01 T00491100  RH  033%=      5-min Rain = 0
KMD1 120324Z 31005KT 05/M10 A3027 RMK A01 T00491100  RH  033%=      5-min Rain = 0
KMD1 120325Z 30006KT 05/M10 A3027 RMK A01 T00491101  RH  033%=      5-min Rain = 0
KMD1 120326Z 32006KT 05/M10 A3027 RMK A01 T00481101  RH  033%=      5-min Rain = 0
KMD1 120327Z 31006KT 05/M10 A3027 RMK A01 T00481101  RH  033%=      5-min Rain = 0
KMD1 120328Z 31007KT 05/M10 A3027 RMK A01 T00471101  RH  033%=      5-min Rain = 0
KMD1 120329Z 31006KT 05/M10 A3027 RMK A01 T00461100  RH  034%=      5-min Rain = 0
KMD1 120330Z 32006KT 05/M10 A3027 RMK A01 T00471100  RH  034%=      5-min Rain = 0
KMD1 120331Z 32005KT 05/M10 A3027 RMK A01 T00471100  RH  034%=      5-min Rain = 0
KMD1 120332Z 31005KT 05/M10 A3027 RMK A01 T00471100  RH  034%=      5-min Rain = 0
KMD1 120333Z 32006KT 05/M10 A3027 RMK A01 T00461101  RH  034%=      5-min Rain = 0
KMD1 120334Z 33005KT 05/M10 A3027 RMK A01 T00451100  RH  034%=      5-min Rain = 0
KMD1 120335Z 32005KT 05/M10 A3027 RMK A01 T00451100  RH  034%=      5-min Rain = 0
KMD1 120336Z 32005KT 05/M10 A3027 RMK A01 T00451100  RH  034%=      5-min Rain = 0
KMD1 120337Z 32005KT 04/M10 A3027 RMK A01 T00441100  RH  034%=      5-min Rain = 0
KMD1 120338Z 32005KT 04/M10 A3027 RMK A01 T00441100  RH  034%=      5-min Rain = 0
KMD1 120339Z 32006KT 04/M10 A3027 RMK A01 T00441100  RH  034%=      5-min Rain = 0
KMD1 120340Z 33006KT 04/M10 A3027 RMK A01 T00441099  RH  034%=      5-min Rain = 0
KMD1 120341Z 33005KT 05/M10 A3028 RMK A01 T00461099  RH  034%=      5-min Rain = 0
KMD1 120342Z 32006KT 05/M10 A3028 RMK A01 T00461099  RH  034%=      5-min Rain = 0
KMD1 120343Z 32006KT 05/M10 A3028 RMK A01 T00461099  RH  034%=      5-min Rain = 0
KMD1 120344Z 32007KT 05/M10 A3028 RMK A01 T00461099  RH  034%=      5-min Rain = 0
KMD1 120345Z 33007KT 05/M10 A3028 RMK A01 T00471099  RH  034%=      5-min Rain = 0
KMD1 120346Z 32006KT 05/M10 A3028 RMK A01 T00471098  RH  034%=      5-min Rain = 0
KMD1 120347Z 33007KT 05/M10 A3028 RMK A01 T00471098  RH  034%=      5-min Rain = 0
KMD1 120348Z 32007KT 05/M10 A3028 RMK A01 T00461099  RH  034%=      5-min Rain = 0
KMD1 120349Z 32009KT 05/M10 A3028 RMK A01 T00461099  RH  034%=      5-min Rain = 0
KMD1 120350Z 33007KT 05/M10 A3028 RMK A01 T00471098  RH  034%=      5-min Rain = 0
KMD1 120351Z 32006KT 05/M10 A3028 RMK A01 T00481098  RH  034%=      5-min Rain = 0
KMD1 120352Z 32007KT 05/M10 A3028 RMK A01 T00471098  RH  034%=      5-min Rain = 0
KMD1 120353Z 32006KT 05/M10 A3028 RMK A01 T00471098  RH  034%=      5-min Rain = 0
KMD1 120354Z 32007KT 05/M10 A3028 RMK A01 T00461098  RH  034%=      5-min Rain = 0
KMD1 120355Z 33008KT 05/M10 A3028 RMK A01 T00461098  RH  034%=      5-min Rain = 0
KMD1 120356Z 32008KT 05/M10 A3028 RMK A01 T00461097  RH  034%=      5-min Rain = 0
KMD1 120357Z 32007KT 05/M10 A3028 RMK A01 T00471097  RH  034%=      5-min Rain = 0
KMD1 120358Z 33008KT 05/M10 A3029 RMK A01 T00471098  RH  034%=      5-min Rain = 0
KMD1 120359Z 33006KT 05/M10 A3029 RMK A01 T00471098  RH  034%=      5-min Rain = 0
KMD1 120400Z 33007KT 05/M10 A3028 RMK A01 T00461098  RH  034%=      5-min Rain = 0
KMD1 120401Z 33007KT 05/M10 A3028 RMK A01 T00451098  RH  035%=      5-min Rain = 0
KMD1 120402Z 32006KT 05/M10 A3028 RMK A01 T00451098  RH  035%=      5-min Rain = 0
KMD1 120403Z 32006KT 05/M10 A3028 RMK A01 T00451097  RH  035%=      5-min Rain = 0
KMD1 120404Z 33008KT 05/M10 A3028 RMK A01 T00451098  RH  035%=      5-min Rain = 0
KMD1 120405Z 33006KT 04/M10 A3028 RMK A01 T00441098  RH  035%=      5-min Rain = 0
KMD1 120406Z 34006KT 04/M10 A3028 RMK A01 T00441097  RH  035%=      5-min Rain = 0
KMD1 120407Z 33004KT 04/M10 A3028 RMK A01 T00441097  RH  035%=      5-min Rain = 0
KMD1 120408Z 33004KT 04/M10 A3028 RMK A01 T00421098  RH  035%=      5-min Rain = 0
KMD1 120409Z 33004KT 04/M10 A3028 RMK A01 T00411098  RH  036%=      5-min Rain = 0
KMD1 120410Z 33004KT 04/M10 A3028 RMK A01 T00401097  RH  036%=      5-min Rain = 0
KMD1 120411Z 34005KT 04/M10 A3028 RMK A01 T00391098  RH  036%=      5-min Rain = 0
KMD1 120412Z 33004KT 04/M10 A3029 RMK A01 T00391098  RH  036%=      5-min Rain = 0
KMD1 120413Z 33005KT 04/M10 A3029 RMK A01 T00391098  RH  036%=      5-min Rain = 0
KMD1 120414Z 32005KT 04/M10 A3029 RMK A01 T00391098  RH  036%=      5-min Rain = 0
KMD1 120415Z 32005KT 04/M10 A3029 RMK A01 T00401097  RH  036%=      5-min Rain = 0
KMD1 120416Z 32005KT 04/M10 A3029 RMK A01 T00391097  RH  036%=      5-min Rain = 0
KMD1 120417Z 32005KT 04/M10 A3029 RMK A01 T00391098  RH  036%=      5-min Rain = 0
KMD1 120418Z 32006KT 04/M10 A3029 RMK A01 T00401098  RH  036%=      5-min Rain = 0
KMD1 120419Z 33005KT 04/M10 A3029 RMK A01 T00401098  RH  036%=      5-min Rain = 0
KMD1 120420Z 33006KT 04/M10 A3029 RMK A01 T00391098  RH  036%=      5-min Rain = 0
KMD1 120421Z 32006KT 04/M10 A3029 RMK A01 T00381098  RH  036%=      5-min Rain = 0
KMD1 120422Z 33006KT 04/M10 A3029 RMK A01 T00381098  RH  036%=      5-min Rain = 0
KMD1 120423Z 32006KT 04/M10 A3029 RMK A01 T00381098  RH  036%=      5-min Rain = 0
KMD1 120424Z 32006KT 04/M10 A3029 RMK A01 T00381098  RH  036%=      5-min Rain = 0
KMD1 120425Z 33007KT 04/M10 A3029 RMK A01 T00381098  RH  036%=      5-min Rain = 0
KMD1 120426Z 32005KT 04/M10 A3029 RMK A01 T00381098  RH  036%=      5-min Rain = 0
KMD1 120427Z 32006KT 04/M10 A3029 RMK A01 T00371098  RH  036%=      5-min Rain = 0
KMD1 120428Z 32006KT 04/M10 A3029 RMK A01 T00371098  RH  037%=      5-min Rain = 0
KMD1 120429Z 32007KT 04/M10 A3029 RMK A01 T00361098  RH  037%=      5-min Rain = 0
KMD1 120430Z 32006KT 04/M10 A3029 RMK A01 T00351098  RH  037%=      5-min Rain = 0
KMD1 120431Z 31006KT 04/M10 A3029 RMK A01 T00351098  RH  037%=      5-min Rain = 0
KMD1 120432Z 32007KT 04/M10 A3029 RMK A01 T00351098  RH  037%=      5-min Rain = 0
KMD1 120433Z 31006KT 04/M10 A3029 RMK A01 T00351098  RH  037%=      5-min Rain = 0
KMD1 120434Z 31007KT 04/M10 A3029 RMK A01 T00351098  RH  037%=      5-min Rain = 0
KMD1 120435Z 31006KT 04/M10 A3029 RMK A01 T00371097  RH  037%=      5-min Rain = 0
KMD1 120436Z 31006KT 04/M10 A3029 RMK A01 T00371097  RH  037%=      5-min Rain = 0
KMD1 120437Z 32007KT 04/M10 A3029 RMK A01 T00371097  RH  037%=      5-min Rain = 0
KMD1 120438Z 32006KT 04/M10 A3029 RMK A01 T00361097  RH  037%=      5-min Rain = 0
KMD1 120439Z 32006KT 04/M10 A3029 RMK A01 T00361097  RH  037%=      5-min Rain = 0
KMD1 120440Z 32006KT 04/M10 A3029 RMK A01 T00361097  RH  037%=      5-min Rain = 0
KMD1 120441Z 33005KT 04/M10 A3029 RMK A01 T00361098  RH  037%=      5-min Rain = 0
KMD1 120442Z 33005KT 04/M10 A3029 RMK A01 T00361097  RH  037%=      5-min Rain = 0
KMD1 120443Z 33005KT 04/M10 A3029 RMK A01 T00361098  RH  037%=      5-min Rain = 0
KMD1 120444Z 33006KT 04/M10 A3029 RMK A01 T00361098  RH  037%=      5-min Rain = 0
KMD1 120445Z 33004KT 04/M10 A3029 RMK A01 T00371097  RH  037%=      5-min Rain = 0
KMD1 120446Z 33006KT 04/M10 A3029 RMK A01 T00361098  RH  037%=      5-min Rain = 0
KMD1 120447Z 34005KT 04/M10 A3029 RMK A01 T00361098  RH  037%=      5-min Rain = 0
KMD1 120448Z 33004KT 04/M10 A3029 RMK A01 T00361097  RH  037%=      5-min Rain = 0
KMD1 120449Z 33004KT 04/M10 A3029 RMK A01 T00351097  RH  037%=      5-min Rain = 0
KMD1 120450Z 33005KT 03/M10 A3029 RMK A01 T00341098  RH  038%=      5-min Rain = 0
KMD1 120451Z 34004KT 03/M10 A3029 RMK A01 T00331098  RH  038%=      5-min Rain = 0
KMD1 120452Z 33004KT 03/M10 A3029 RMK A01 T00331097  RH  038%=      5-min Rain = 0
KMD1 120453Z 34003KT 03/M10 A3029 RMK A01 T00331098  RH  038%=      5-min Rain = 0
KMD1 120454Z 34004KT 03/M10 A3029 RMK A01 T00321097  RH  038%=      5-min Rain = 0
KMD1 120455Z 34004KT 03/M10 A3029 RMK A01 T00321098  RH  038%=      5-min Rain = 0
KMD1 120456Z 34004KT 03/M10 A3029 RMK A01 T00321098  RH  038%=      5-min Rain = 0
KMD1 120457Z 34004KT 03/M10 A3029 RMK A01 T00311097  RH  038%=      5-min Rain = 0
KMD1 120458Z 34004KT 03/M10 A3029 RMK A01 T00301097  RH  039%=      5-min Rain = 0
KMD1 120459Z 33004KT 03/M10 A3029 RMK A01 T00291097  RH  039%=      5-min Rain = 0
KMD1 120500Z 34004KT 03/M10 A3029 RMK A01 T00291097  RH  039%=      5-min Rain = 0
KMD1 120501Z 33003KT 03/M10 A3029 RMK A01 T00291097  RH  039%=      5-min Rain = 0
KMD1 120502Z 34003KT 03/M10 A3029 RMK A01 T00301097  RH  039%=      5-min Rain = 0
KMD1 120503Z 34005KT 03/M10 A3029 RMK A01 T00301097  RH  039%=      5-min Rain = 0
KMD1 120504Z 33003KT 03/M10 A3029 RMK A01 T00301097  RH  039%=      5-min Rain = 0
KMD1 120505Z 32003KT 03/M10 A303 RMK A01 T00291097  RH  039%=      5-min Rain = 0
KMD1 120506Z 32005KT 03/M10 A303 RMK A01 T00281098  RH  039%=      5-min Rain = 0
KMD1 120507Z 32003KT 03/M10 A303 RMK A01 T00281098  RH  039%=      5-min Rain = 0
KMD1 120508Z 31003KT 03/M10 A303 RMK A01 T00281098  RH  039%=      5-min Rain = 0
KMD1 120509Z 31004KT 03/M10 A303 RMK A01 T00281098  RH  039%=      5-min Rain = 0
KMD1 120510Z 31003KT 03/M10 A303 RMK A01 T00271098  RH  039%=      5-min Rain = 0
KMD1 120511Z 31004KT 03/M10 A303 RMK A01 T00261098  RH  039%=      5-min Rain = 0
KMD1 120512Z 32003KT 03/M10 A303 RMK A01 T00261098  RH  040%=      5-min Rain = 0
KMD1 120513Z 31003KT 03/M10 A303 RMK A01 T00261098  RH  039%=      5-min Rain = 0
KMD1 120514Z 32003KT 03/M10 A303 RMK A01 T00261098  RH  039%=      5-min Rain = 0
KMD1 120515Z 32003KT 03/M10 A303 RMK A01 T00261098  RH  039%=      5-min Rain = 0
KMD1 120516Z 32003KT 03/M10 A303 RMK A01 T00261098  RH  039%=      5-min Rain = 0
KMD1 120517Z 33003KT 03/M10 A303 RMK A01 T00261099  RH  039%=      5-min Rain = 0
KMD1 120518Z 32002KT 03/M10 A303 RMK A01 T00271099  RH  039%=      5-min Rain = 0
KMD1 120519Z 32002KT 03/M10 A303 RMK A01 T00271099  RH  039%=      5-min Rain = 0
KMD1 120520Z 30001KT 03/M10 A303 RMK A01 T00271098  RH  039%=      5-min Rain = 0
KMD1 120521Z 30002KT 03/M10 A303 RMK A01 T00271099  RH  039%=      5-min Rain = 0
KMD1 120522Z 30002KT 03/M10 A303 RMK A01 T00261098  RH  039%=      5-min Rain = 0
KMD1 120523Z 30003KT 03/M10 A303 RMK A01 T00271098  RH  039%=      5-min Rain = 0
KMD1 120524Z 29002KT 03/M10 A303 RMK A01 T00251099  RH  039%=      5-min Rain = 0
KMD1 120525Z 30002KT 02/M10 A303 RMK A01 T00241099  RH  040%=      5-min Rain = 0
KMD1 120526Z 30002KT 02/M10 A303 RMK A01 T00231100  RH  040%=      5-min Rain = 0
KMD1 120527Z 31002KT 02/M10 A303 RMK A01 T00221100  RH  040%=      5-min Rain = 0
KMD1 120528Z 31002KT 02/M10 A303 RMK A01 T00211100  RH  040%=      5-min Rain = 0
KMD1 120529Z 32003KT 02/M10 A303 RMK A01 T00211100  RH  040%=      5-min Rain = 0
KMD1 120530Z 33003KT 02/M10 A303 RMK A01 T00221099  RH  040%=      5-min Rain = 0
KMD1 120531Z 33004KT 02/M10 A303 RMK A01 T00231098  RH  040%=      5-min Rain = 0
KMD1 120532Z 33003KT 03/M10 A303 RMK A01 T00251097  RH  040%=      5-min Rain = 0
KMD1 120533Z 34003KT 03/M10 A303 RMK A01 T00251098  RH  040%=      5-min Rain = 0
KMD1 120534Z 34003KT 03/M10 A303 RMK A01 T00251098  RH  040%=      5-min Rain = 0
KMD1 120535Z 34003KT 03/M10 A303 RMK A01 T00251098  RH  040%=      5-min Rain = 0
KMD1 120536Z 35003KT 03/M10 A303 RMK A01 T00261097  RH  040%=      5-min Rain = 0
KMD1 120537Z 35003KT 03/M10 A303 RMK A01 T00261097  RH  040%=      5-min Rain = 0
KMD1 120538Z 35003KT 03/M10 A303 RMK A01 T00251097  RH  040%=      5-min Rain = 0
KMD1 120539Z 35003KT 02/M10 A303 RMK A01 T00241096  RH  041%=      5-min Rain = 0
KMD1 120540Z 34004KT 02/M10 A303 RMK A01 T00221095  RH  041%=      5-min Rain = 0
KMD1 120541Z 34004KT 02/M10 A303 RMK A01 T00211096  RH  042%=      5-min Rain = 0
KMD1 120542Z 33004KT 02/M10 A303 RMK A01 T00201096  RH  042%=      5-min Rain = 0
KMD1 120543Z 33004KT 02/M10 A303 RMK A01 T00201097  RH  042%=      5-min Rain = 0
KMD1 120544Z 33004KT 02/M10 A303 RMK A01 T00191098  RH  042%=      5-min Rain = 0
KMD1 120545Z 33004KT 02/M10 A303 RMK A01 T00191098  RH  042%=      5-min Rain = 0
KMD1 120546Z 33003KT 02/M10 A303 RMK A01 T00181098  RH  042%=      5-min Rain = 0
KMD1 120547Z 34003KT 02/M10 A303 RMK A01 T00181098  RH  042%=      5-min Rain = 0
KMD1 120548Z 34002KT 02/M10 A303 RMK A01 T00181098  RH  042%=      5-min Rain = 0
KMD1 120549Z 35002KT 02/M10 A303 RMK A01 T00181097  RH  042%=      5-min Rain = 0
KMD1 120550Z 35002KT 02/M10 A303 RMK A01 T00181097  RH  042%=      5-min Rain = 0
KMD1 120551Z 35002KT 02/M10 A303 RMK A01 T00171097  RH  043%=      5-min Rain = 0
KMD1 120552Z 35002KT 02/M10 A303 RMK A01 T00161097  RH  043%=      5-min Rain = 0
KMD1 120553Z 36001KT 02/M10 A303 RMK A01 T00161097  RH  043%=      5-min Rain = 0
KMD1 120554Z 01001KT 02/M10 A303 RMK A01 T00161097  RH  043%=      5-min Rain = 0
KMD1 120555Z 01001KT 02/M10 A3029 RMK A01 T00151098  RH  043%=      5-min Rain = 0
KMD1 120556Z 35002KT 01/M10 A303 RMK A01 T00141098  RH  043%=      5-min Rain = 0
KMD1 120557Z 35001KT 01/M10 A303 RMK A01 T00141097  RH  043%=      5-min Rain = 0
KMD1 120558Z 34001KT 01/M10 A303 RMK A01 T00141097  RH  043%=      5-min Rain = 0
KMD1 120559Z 33002KT 01/M10 A303 RMK A01 T00141097  RH  043%=      5-min Rain = 0

Page generated in 0.0356 seconds.